SAV548Z FHAW-TNCM
Flight info
| Callsign | SAV548Z |
|---|---|
| Flight time | 7h 6m |
| Altitude | 40000 |
| Route | HUPNO1 HUPNO DCT 05S020W 01N030W/N0482F400 07N040W DCT ASALI UL695 KANUN DCT ELOPO |
| Aircraft | A359/H-SDE2E3GHIJ3J4J5LM1ORWXY/LB1D1 |
Departure
| Time | 2026-05-07 08:20 |
|---|---|
| Airport | RAF Ascension Island (FHAW) |
Arrival
| Time | 2026-05-07 15:26 |
|---|---|
| Airport | Princess Juliana International Airport (TNCM) |
| Time | Latitude | Longitude | Altitude | Speed | Heading |
|---|---|---|---|---|---|
| 2026-05-07 07:54 | -7.96912 | -14.40262 | 235 ft | 0 kts | 207° |
| 2026-05-07 08:14 | -7.96910 | -14.40261 | 263 ft | 2 kts | 207° |
| 2026-05-07 08:14 | -7.96895 | -14.40254 | 264 ft | 2 kts | 207° |
| 2026-05-07 08:14 | -7.96880 | -14.40246 | 265 ft | 2 kts | 207° |
| 2026-05-07 08:15 | -7.96864 | -14.40238 | 267 ft | 3 kts | 207° |
| 2026-05-07 08:15 | -7.96848 | -14.40228 | 265 ft | 3 kts | 220° |
| 2026-05-07 08:15 | -7.96835 | -14.40214 | 264 ft | 3 kts | 240° |
| 2026-05-07 08:15 | -7.96828 | -14.40196 | 268 ft | 3 kts | 261° |
| 2026-05-07 08:16 | -7.96826 | -14.40179 | 266 ft | 0 kts | 276° |
| 2026-05-07 08:17 | -7.96814 | -14.40216 | 261 ft | 13 kts | 306° |
| 2026-05-07 08:17 | -7.96747 | -14.40288 | 264 ft | 14 kts | 312° |
| 2026-05-07 08:17 | -7.96673 | -14.40356 | 266 ft | 14 kts | 328° |
| 2026-05-07 08:17 | -7.96593 | -14.40415 | 268 ft | 14 kts | 317° |
| 2026-05-07 08:18 | -7.96522 | -14.40484 | 270 ft | 14 kts | 316° |
| 2026-05-07 08:18 | -7.96452 | -14.40553 | 270 ft | 14 kts | 316° |
| 2026-05-07 08:18 | -7.96377 | -14.40594 | 273 ft | 11 kts | 4° |
| 2026-05-07 08:18 | -7.96362 | -14.40558 | 273 ft | 6 kts | 113° |
| 2026-05-07 08:19 | -7.96401 | -14.40467 | 270 ft | 36 kts | 114° |
| 2026-05-07 08:19 | -7.96620 | -14.40039 | 260 ft | 99 kts | 118° |
| 2026-05-07 08:19 | -7.97020 | -14.39247 | 249 ft | 152 kts | 117° |
| 2026-05-07 08:19 | -7.97498 | -14.38265 | 786 ft | 152 kts | 115° |
| 2026-05-07 08:20 | -7.97934 | -14.37333 | 1463 ft | 146 kts | 115° |
| 2026-05-07 08:20 | -7.98349 | -14.36404 | 2110 ft | 146 kts | 113° |
| 2026-05-07 08:20 | -7.98776 | -14.35401 | 2507 ft | 161 kts | 112° |
| 2026-05-07 08:20 | -7.99302 | -14.34390 | 2947 ft | 167 kts | 127° |
| 2026-05-07 08:21 | -8.00297 | -14.33782 | 3468 ft | 173 kts | 162° |
| 2026-05-07 08:21 | -8.01481 | -14.33962 | 3997 ft | 181 kts | 205° |
| 2026-05-07 08:21 | -8.02342 | -14.34957 | 4267 ft | 205 kts | 245° |
| 2026-05-07 08:21 | -8.02479 | -14.36469 | 4356 ft | 232 kts | 282° |
| 2026-05-07 08:22 | -8.02140 | -14.38147 | 4467 ft | 258 kts | 282° |
| 2026-05-07 08:22 | -8.01765 | -14.40013 | 4673 ft | 280 kts | 281° |
| 2026-05-07 08:22 | -8.01383 | -14.41974 | 5224 ft | 289 kts | 281° |
| 2026-05-07 08:22 | -8.01012 | -14.43960 | 5901 ft | 291 kts | 281° |
| 2026-05-07 08:23 | -8.00599 | -14.45961 | 6674 ft | 290 kts | 287° |
| 2026-05-07 08:23 | -7.99872 | -14.47845 | 7496 ft | 287 kts | 294° |
| 2026-05-07 08:23 | -7.99023 | -14.49646 | 8331 ft | 285 kts | 297° |
| 2026-05-07 08:23 | -7.98105 | -14.51415 | 9193 ft | 283 kts | 298° |
| 2026-05-07 08:24 | -7.97162 | -14.53153 | 10042 ft | 282 kts | 299° |
| 2026-05-07 08:24 | -7.96201 | -14.54899 | 10520 ft | 295 kts | 299° |
| 2026-05-07 08:24 | -7.95172 | -14.56779 | 10807 ft | 313 kts | 298° |
| 2026-05-07 08:24 | -7.94106 | -14.58739 | 11098 ft | 330 kts | 298° |
| 2026-05-07 08:25 | -7.92984 | -14.60821 | 11366 ft | 345 kts | 298° |
| 2026-05-07 08:25 | -7.91821 | -14.62989 | 11763 ft | 355 kts | 298° |
| 2026-05-07 08:25 | -7.90646 | -14.65189 | 12243 ft | 361 kts | 298° |
| 2026-05-07 08:25 | -7.89439 | -14.67448 | 12770 ft | 366 kts | 298° |
| 2026-05-07 08:26 | -7.87001 | -14.72014 | 13766 ft | 375 kts | 298° |
| 2026-05-07 08:26 | -7.85750 | -14.74353 | 14212 ft | 379 kts | 298° |
| 2026-05-07 08:26 | -7.84501 | -14.76688 | 14652 ft | 383 kts | 298° |
| 2026-05-07 08:27 | -7.83224 | -14.79077 | 15102 ft | 387 kts | 298° |
| 2026-05-07 08:27 | -7.81951 | -14.81455 | 15549 ft | 391 kts | 298° |
| 2026-05-07 08:27 | -7.80647 | -14.83891 | 16009 ft | 394 kts | 298° |
| 2026-05-07 08:27 | -7.79350 | -14.86314 | 16453 ft | 398 kts | 298° |
| 2026-05-07 08:28 | -7.78019 | -14.88800 | 16897 ft | 402 kts | 299° |
| 2026-05-07 08:28 | -7.76680 | -14.91300 | 17329 ft | 406 kts | 299° |
| 2026-05-07 08:28 | -7.75344 | -14.93794 | 17764 ft | 410 kts | 299° |
| 2026-05-07 08:28 | -7.73976 | -14.96345 | 18209 ft | 414 kts | 299° |
| 2026-05-07 08:29 | -7.72595 | -14.98923 | 18624 ft | 416 kts | 299° |
| 2026-05-07 08:29 | -7.71217 | -15.01496 | 19105 ft | 417 kts | 299° |
| 2026-05-07 08:29 | -7.69856 | -15.04036 | 19562 ft | 418 kts | 299° |
| 2026-05-07 08:29 | -7.68467 | -15.06627 | 20037 ft | 419 kts | 298° |
| 2026-05-07 08:30 | -7.67076 | -15.09222 | 20502 ft | 420 kts | 298° |
| 2026-05-07 08:30 | -7.65690 | -15.11807 | 20941 ft | 422 kts | 298° |
| 2026-05-07 08:30 | -7.64285 | -15.14425 | 21410 ft | 424 kts | 298° |
| 2026-05-07 08:30 | -7.62879 | -15.17046 | 21864 ft | 425 kts | 298° |
| 2026-05-07 08:31 | -7.61475 | -15.19662 | 22293 ft | 427 kts | 298° |
| 2026-05-07 08:31 | -7.60050 | -15.22318 | 22731 ft | 429 kts | 298° |
| 2026-05-07 08:31 | -7.58641 | -15.24944 | 23174 ft | 431 kts | 298° |
| 2026-05-07 08:31 | -7.57201 | -15.27627 | 23573 ft | 433 kts | 298° |
| 2026-05-07 08:32 | -7.55778 | -15.30276 | 23898 ft | 435 kts | 298° |
| 2026-05-07 08:32 | -7.54331 | -15.32971 | 24233 ft | 437 kts | 298° |
| 2026-05-07 08:32 | -7.52870 | -15.35692 | 24563 ft | 440 kts | 298° |
| 2026-05-07 08:32 | -7.51428 | -15.38376 | 24919 ft | 442 kts | 298° |
| 2026-05-07 08:33 | -7.49950 | -15.41127 | 25283 ft | 445 kts | 298° |
| 2026-05-07 08:33 | -7.48469 | -15.43883 | 25678 ft | 447 kts | 298° |
| 2026-05-07 08:33 | -7.46997 | -15.46622 | 26066 ft | 450 kts | 298° |
| 2026-05-07 08:33 | -7.45498 | -15.49410 | 26464 ft | 452 kts | 298° |
| 2026-05-07 08:34 | -7.44013 | -15.52172 | 26862 ft | 454 kts | 298° |
| 2026-05-07 08:34 | -7.42496 | -15.54992 | 27243 ft | 457 kts | 299° |
| 2026-05-07 08:34 | -7.40987 | -15.57797 | 27653 ft | 459 kts | 299° |
| 2026-05-07 08:34 | -7.39450 | -15.60652 | 28054 ft | 462 kts | 299° |
| 2026-05-07 08:35 | -7.37915 | -15.63506 | 28436 ft | 464 kts | 299° |
| 2026-05-07 08:35 | -7.36374 | -15.66368 | 28813 ft | 467 kts | 299° |
| 2026-05-07 08:35 | -7.34837 | -15.69225 | 29197 ft | 469 kts | 299° |
| 2026-05-07 08:35 | -7.33265 | -15.72145 | 29580 ft | 471 kts | 299° |
| 2026-05-07 08:36 | -7.31718 | -15.75018 | 29934 ft | 474 kts | 299° |
| 2026-05-07 08:36 | -7.30133 | -15.77962 | 30260 ft | 476 kts | 299° |
| 2026-05-07 08:36 | -7.28548 | -15.80905 | 30570 ft | 478 kts | 300° |
| 2026-05-07 08:36 | -7.26956 | -15.83859 | 30891 ft | 479 kts | 300° |
| 2026-05-07 08:37 | -7.25374 | -15.86792 | 31213 ft | 481 kts | 300° |
| 2026-05-07 08:37 | -7.23784 | -15.89738 | 31529 ft | 482 kts | 300° |
| 2026-05-07 08:37 | -7.22170 | -15.92733 | 31816 ft | 484 kts | 300° |
| 2026-05-07 08:37 | -7.20576 | -15.95689 | 32076 ft | 486 kts | 300° |
| 2026-05-07 08:38 | -7.18953 | -15.98699 | 32344 ft | 488 kts | 300° |
| 2026-05-07 08:38 | -7.17340 | -16.01689 | 32609 ft | 489 kts | 300° |
| 2026-05-07 08:38 | -7.15710 | -16.04711 | 32858 ft | 491 kts | 300° |
| 2026-05-07 08:38 | -7.14073 | -16.07744 | 33101 ft | 493 kts | 300° |
| 2026-05-07 08:39 | -7.12438 | -16.10773 | 33332 ft | 495 kts | 300° |
| 2026-05-07 08:39 | -7.10788 | -16.13830 | 33590 ft | 496 kts | 300° |
| 2026-05-07 08:39 | -7.09141 | -16.16883 | 33937 ft | 494 kts | 300° |
| 2026-05-07 08:39 | -7.07519 | -16.19887 | 34252 ft | 493 kts | 300° |
| 2026-05-07 08:40 | -7.05871 | -16.22940 | 34559 ft | 492 kts | 300° |
| 2026-05-07 08:40 | -7.04251 | -16.25938 | 34868 ft | 490 kts | 300° |
| 2026-05-07 08:40 | -7.02621 | -16.28955 | 35161 ft | 489 kts | 300° |
| 2026-05-07 08:40 | -7.00994 | -16.31965 | 35461 ft | 487 kts | 300° |
| 2026-05-07 08:41 | -6.99391 | -16.34931 | 35752 ft | 486 kts | 300° |
| 2026-05-07 08:41 | -6.97773 | -16.37925 | 36032 ft | 485 kts | 300° |
| 2026-05-07 08:41 | -6.96160 | -16.40907 | 36299 ft | 484 kts | 300° |
| 2026-05-07 08:41 | -6.94546 | -16.43892 | 36588 ft | 483 kts | 300° |
| 2026-05-07 08:42 | -6.92954 | -16.46833 | 36831 ft | 482 kts | 300° |
| 2026-05-07 08:42 | -6.91342 | -16.49812 | 37107 ft | 481 kts | 300° |
| 2026-05-07 08:42 | -6.89735 | -16.52782 | 37382 ft | 480 kts | 300° |
| 2026-05-07 08:42 | -6.88155 | -16.55702 | 37619 ft | 479 kts | 300° |
| 2026-05-07 08:43 | -6.86556 | -16.58655 | 37867 ft | 478 kts | 300° |
| 2026-05-07 08:43 | -6.84961 | -16.61600 | 37961 ft | 479 kts | 300° |
| 2026-05-07 08:43 | -6.81785 | -16.67466 | 37968 ft | 478 kts | 300° |
| 2026-05-07 08:44 | -6.78606 | -16.73335 | 37971 ft | 478 kts | 300° |
| 2026-05-07 08:44 | -6.75424 | -16.79209 | 37964 ft | 478 kts | 300° |
| 2026-05-07 08:45 | -6.72241 | -16.85077 | 37972 ft | 479 kts | 300° |
| 2026-05-07 08:45 | -6.69062 | -16.90937 | 37969 ft | 479 kts | 300° |
| 2026-05-07 08:46 | -6.65876 | -16.96811 | 37964 ft | 479 kts | 300° |
| 2026-05-07 08:46 | -6.62673 | -17.02712 | 37967 ft | 479 kts | 300° |
| 2026-05-07 08:47 | -6.59488 | -17.08579 | 37962 ft | 479 kts | 300° |
| 2026-05-07 08:47 | -6.56296 | -17.14454 | 37963 ft | 480 kts | 300° |
| 2026-05-07 08:48 | -6.53104 | -17.20331 | 37964 ft | 480 kts | 300° |
| 2026-05-07 08:48 | -6.49907 | -17.26213 | 37956 ft | 480 kts | 300° |
| 2026-05-07 08:49 | -6.46692 | -17.32127 | 37966 ft | 480 kts | 300° |
| 2026-05-07 08:49 | -6.43491 | -17.38012 | 37964 ft | 480 kts | 300° |
| 2026-05-07 08:50 | -6.40308 | -17.43863 | 37965 ft | 480 kts | 300° |
| 2026-05-07 08:50 | -6.37089 | -17.49779 | 37961 ft | 480 kts | 300° |
| 2026-05-07 08:51 | -6.33897 | -17.55641 | 37969 ft | 480 kts | 300° |
| 2026-05-07 08:51 | -6.30697 | -17.61516 | 37967 ft | 480 kts | 300° |
| 2026-05-07 08:52 | -6.27493 | -17.67399 | 37965 ft | 480 kts | 300° |
| 2026-05-07 08:52 | -6.24274 | -17.73307 | 37961 ft | 480 kts | 300° |
| 2026-05-07 08:53 | -6.21069 | -17.79185 | 37964 ft | 481 kts | 300° |
| 2026-05-07 08:53 | -6.17854 | -17.85082 | 37964 ft | 481 kts | 300° |
| 2026-05-07 08:54 | -6.14647 | -17.90961 | 37960 ft | 481 kts | 300° |
| 2026-05-07 08:54 | -6.11440 | -17.96838 | 37970 ft | 481 kts | 300° |
| 2026-05-07 08:55 | -6.08231 | -18.02718 | 37960 ft | 481 kts | 300° |
| 2026-05-07 08:55 | -6.05017 | -18.08605 | 37961 ft | 480 kts | 300° |
| 2026-05-07 08:56 | -6.01802 | -18.14492 | 37973 ft | 480 kts | 300° |
| 2026-05-07 08:56 | -5.98587 | -18.20377 | 37961 ft | 481 kts | 300° |
| 2026-05-07 08:57 | -5.95372 | -18.26259 | 37968 ft | 481 kts | 300° |
| 2026-05-07 08:57 | -5.92154 | -18.32145 | 37962 ft | 481 kts | 300° |
| 2026-05-07 08:58 | -5.88943 | -18.38018 | 37962 ft | 481 kts | 300° |
| 2026-05-07 08:58 | -5.85713 | -18.43922 | 37960 ft | 481 kts | 300° |
| 2026-05-07 08:59 | -5.82495 | -18.49803 | 37962 ft | 481 kts | 300° |
| 2026-05-07 08:59 | -5.79286 | -18.55666 | 37962 ft | 481 kts | 300° |
| 2026-05-07 09:00 | -5.76050 | -18.61577 | 37963 ft | 481 kts | 300° |
| 2026-05-07 09:00 | -5.72836 | -18.67445 | 37964 ft | 481 kts | 300° |
| 2026-05-07 09:01 | -5.69609 | -18.73336 | 37963 ft | 481 kts | 300° |
| 2026-05-07 09:01 | -5.66377 | -18.79234 | 37966 ft | 481 kts | 300° |
| 2026-05-07 09:02 | -5.63160 | -18.85102 | 37961 ft | 481 kts | 300° |
| 2026-05-07 09:02 | -5.59945 | -18.90965 | 37964 ft | 481 kts | 300° |
| 2026-05-07 09:03 | -5.56715 | -18.96855 | 37966 ft | 481 kts | 300° |
| 2026-05-07 09:03 | -5.53501 | -19.02713 | 37965 ft | 481 kts | 300° |
| 2026-05-07 09:04 | -5.50807 | -19.07622 | 37968 ft | 481 kts | 300° |
| 2026-05-07 09:04 | -5.47574 | -19.13510 | 37963 ft | 481 kts | 300° |
| 2026-05-07 09:05 | -5.44349 | -19.19386 | 37962 ft | 481 kts | 300° |
| 2026-05-07 09:05 | -5.41128 | -19.25250 | 37961 ft | 481 kts | 300° |
| 2026-05-07 09:06 | -5.37902 | -19.31121 | 37963 ft | 481 kts | 300° |
| 2026-05-07 09:06 | -5.34674 | -19.36995 | 37961 ft | 481 kts | 300° |
| 2026-05-07 09:07 | -5.31428 | -19.42900 | 37964 ft | 482 kts | 300° |
| 2026-05-07 09:07 | -5.28199 | -19.48773 | 37962 ft | 482 kts | 300° |
| 2026-05-07 09:08 | -5.24966 | -19.54650 | 37960 ft | 482 kts | 300° |
| 2026-05-07 09:08 | -5.21735 | -19.60523 | 37960 ft | 482 kts | 300° |
| 2026-05-07 09:09 | -5.18503 | -19.66397 | 37958 ft | 482 kts | 300° |
| 2026-05-07 09:09 | -5.15264 | -19.72280 | 37959 ft | 482 kts | 300° |
| 2026-05-07 09:10 | -5.12028 | -19.78157 | 37960 ft | 482 kts | 300° |
| 2026-05-07 09:10 | -5.08773 | -19.84068 | 37960 ft | 482 kts | 300° |
| 2026-05-07 09:11 | -5.05541 | -19.89935 | 37961 ft | 482 kts | 300° |
| 2026-05-07 09:11 | -5.02297 | -19.95822 | 37962 ft | 482 kts | 300° |
| 2026-05-07 09:12 | -4.99059 | -20.01684 | 37957 ft | 482 kts | 301° |
| 2026-05-07 09:12 | -4.95665 | -20.07466 | 37960 ft | 482 kts | 302° |
| 2026-05-07 09:13 | -4.92199 | -20.13216 | 37962 ft | 482 kts | 302° |
| 2026-05-07 09:13 | -4.88748 | -20.18986 | 37961 ft | 482 kts | 302° |
| 2026-05-07 09:14 | -4.85327 | -20.24747 | 37962 ft | 482 kts | 302° |
| 2026-05-07 09:14 | -4.81889 | -20.30550 | 37961 ft | 482 kts | 302° |
| 2026-05-07 09:15 | -4.78476 | -20.36308 | 37962 ft | 482 kts | 302° |
| 2026-05-07 09:15 | -4.75046 | -20.42092 | 37965 ft | 482 kts | 302° |
| 2026-05-07 09:16 | -4.71616 | -20.47874 | 37961 ft | 482 kts | 302° |
| 2026-05-07 09:16 | -4.68187 | -20.53651 | 37964 ft | 482 kts | 302° |
| 2026-05-07 09:17 | -4.64765 | -20.59416 | 37960 ft | 482 kts | 302° |
| 2026-05-07 09:17 | -4.61342 | -20.65183 | 37958 ft | 482 kts | 302° |
| 2026-05-07 09:18 | -4.57915 | -20.70952 | 37957 ft | 482 kts | 302° |
| 2026-05-07 09:18 | -4.54468 | -20.76756 | 37960 ft | 482 kts | 302° |
| 2026-05-07 09:19 | -4.51050 | -20.82508 | 37958 ft | 482 kts | 302° |
| 2026-05-07 09:19 | -4.47619 | -20.88282 | 37956 ft | 482 kts | 302° |
| 2026-05-07 09:20 | -4.44191 | -20.94049 | 37961 ft | 482 kts | 302° |
| 2026-05-07 09:20 | -4.40766 | -20.99811 | 37962 ft | 482 kts | 302° |
| 2026-05-07 09:21 | -4.37342 | -21.05569 | 37964 ft | 482 kts | 302° |
| 2026-05-07 09:21 | -4.33920 | -21.11322 | 37961 ft | 481 kts | 302° |
| 2026-05-07 09:22 | -4.30476 | -21.17111 | 37957 ft | 481 kts | 302° |
| 2026-05-07 09:22 | -4.27058 | -21.22854 | 37958 ft | 481 kts | 302° |
| 2026-05-07 09:23 | -4.23624 | -21.28624 | 37960 ft | 481 kts | 302° |
| 2026-05-07 09:23 | -4.20202 | -21.34373 | 37959 ft | 481 kts | 302° |
| 2026-05-07 09:24 | -4.16782 | -21.40116 | 37963 ft | 481 kts | 302° |
| 2026-05-07 09:24 | -4.13351 | -21.45877 | 37964 ft | 481 kts | 302° |
| 2026-05-07 09:25 | -4.09942 | -21.51600 | 37965 ft | 481 kts | 302° |
| 2026-05-07 09:25 | -4.06507 | -21.57365 | 37966 ft | 481 kts | 302° |
| 2026-05-07 09:26 | -4.03088 | -21.63103 | 37966 ft | 481 kts | 302° |
| 2026-05-07 09:26 | -3.99657 | -21.68860 | 37965 ft | 480 kts | 302° |
| 2026-05-07 09:27 | -3.96252 | -21.74570 | 37966 ft | 480 kts | 302° |
| 2026-05-07 09:28 | -3.91117 | -21.83182 | 37967 ft | 480 kts | 302° |
| 2026-05-07 09:28 | -3.87682 | -21.88942 | 37967 ft | 480 kts | 302° |
| 2026-05-07 09:29 | -3.84264 | -21.94671 | 37969 ft | 480 kts | 302° |
| 2026-05-07 09:29 | -3.80852 | -22.00389 | 37966 ft | 480 kts | 302° |
| 2026-05-07 09:30 | -3.77418 | -22.06144 | 37968 ft | 480 kts | 302° |
| 2026-05-07 09:30 | -3.74006 | -22.11860 | 37970 ft | 480 kts | 302° |
| 2026-05-07 09:31 | -3.70583 | -22.17592 | 37966 ft | 480 kts | 302° |
| 2026-05-07 09:31 | -3.67152 | -22.23338 | 37971 ft | 480 kts | 302° |
| 2026-05-07 09:32 | -3.63737 | -22.29056 | 37968 ft | 479 kts | 302° |
| 2026-05-07 09:32 | -3.60316 | -22.34783 | 37970 ft | 479 kts | 302° |
| 2026-05-07 09:33 | -3.56898 | -22.40504 | 37974 ft | 479 kts | 302° |
| 2026-05-07 09:33 | -3.53488 | -22.46210 | 37975 ft | 479 kts | 302° |
| 2026-05-07 09:34 | -3.50074 | -22.51923 | 37966 ft | 478 kts | 302° |
| 2026-05-07 09:34 | -3.46660 | -22.57633 | 37973 ft | 478 kts | 302° |
| 2026-05-07 09:35 | -3.43252 | -22.63333 | 37970 ft | 478 kts | 302° |
| 2026-05-07 09:35 | -3.39839 | -22.69040 | 37969 ft | 478 kts | 302° |
| 2026-05-07 09:36 | -3.36423 | -22.74752 | 37974 ft | 478 kts | 302° |
| 2026-05-07 09:36 | -3.33009 | -22.80460 | 37973 ft | 478 kts | 302° |
| 2026-05-07 09:37 | -3.29585 | -22.86183 | 37974 ft | 478 kts | 302° |
| 2026-05-07 09:37 | -3.26185 | -22.91866 | 37976 ft | 478 kts | 302° |
| 2026-05-07 09:38 | -3.22771 | -22.97569 | 37975 ft | 478 kts | 302° |
| 2026-05-07 09:38 | -3.19339 | -23.03304 | 37971 ft | 478 kts | 302° |
| 2026-05-07 09:39 | -3.15935 | -23.08990 | 37976 ft | 478 kts | 302° |
| 2026-05-07 09:39 | -3.12532 | -23.14673 | 37976 ft | 477 kts | 302° |
| 2026-05-07 09:40 | -3.09102 | -23.20400 | 37972 ft | 477 kts | 302° |
| 2026-05-07 09:40 | -3.05704 | -23.26073 | 37963 ft | 477 kts | 302° |
| 2026-05-07 09:41 | -3.02286 | -23.31780 | 37973 ft | 476 kts | 302° |
| 2026-05-07 09:41 | -2.98885 | -23.37457 | 37967 ft | 476 kts | 302° |
| 2026-05-07 09:42 | -2.95494 | -23.43116 | 37972 ft | 475 kts | 302° |
| 2026-05-07 09:42 | -2.92098 | -23.48783 | 37974 ft | 475 kts | 302° |
| 2026-05-07 09:43 | -2.88712 | -23.54432 | 37972 ft | 475 kts | 302° |
| 2026-05-07 09:43 | -2.85316 | -23.60097 | 37971 ft | 474 kts | 302° |
| 2026-05-07 09:44 | -2.81934 | -23.65738 | 37977 ft | 474 kts | 302° |
| 2026-05-07 09:44 | -2.78546 | -23.71388 | 37973 ft | 474 kts | 302° |
| 2026-05-07 09:45 | -2.75163 | -23.77029 | 37972 ft | 474 kts | 302° |
| 2026-05-07 09:45 | -2.71756 | -23.82708 | 37973 ft | 474 kts | 302° |
| 2026-05-07 09:46 | -2.68372 | -23.88350 | 37973 ft | 474 kts | 302° |
| 2026-05-07 09:46 | -2.64993 | -23.93982 | 37975 ft | 474 kts | 302° |
| 2026-05-07 09:47 | -2.61610 | -23.99619 | 37970 ft | 474 kts | 302° |
| 2026-05-07 09:47 | -2.58213 | -24.05280 | 37968 ft | 475 kts | 302° |
| 2026-05-07 09:48 | -2.54799 | -24.10968 | 37979 ft | 476 kts | 302° |
| 2026-05-07 09:48 | -2.51388 | -24.16649 | 37973 ft | 476 kts | 302° |
| 2026-05-07 09:49 | -2.47979 | -24.22328 | 37973 ft | 476 kts | 302° |
| 2026-05-07 09:49 | -2.44574 | -24.27998 | 37977 ft | 477 kts | 302° |
| 2026-05-07 09:50 | -2.41152 | -24.33696 | 37972 ft | 477 kts | 302° |
| 2026-05-07 09:50 | -2.37742 | -24.39375 | 37973 ft | 478 kts | 302° |
| 2026-05-07 09:51 | -2.34326 | -24.45063 | 37971 ft | 478 kts | 302° |
| 2026-05-07 09:51 | -2.30897 | -24.50771 | 37974 ft | 479 kts | 302° |
| 2026-05-07 09:52 | -2.27467 | -24.56479 | 37973 ft | 480 kts | 302° |
| 2026-05-07 09:52 | -2.24043 | -24.62178 | 37973 ft | 480 kts | 302° |
| 2026-05-07 09:53 | -2.20585 | -24.67932 | 37978 ft | 481 kts | 302° |
| 2026-05-07 09:53 | -2.17145 | -24.73657 | 37979 ft | 481 kts | 302° |
| 2026-05-07 09:54 | -2.13704 | -24.79382 | 37974 ft | 482 kts | 302° |
| 2026-05-07 09:54 | -2.10266 | -24.85102 | 37977 ft | 482 kts | 302° |
| 2026-05-07 09:55 | -2.06803 | -24.90862 | 37977 ft | 483 kts | 302° |
| 2026-05-07 09:55 | -2.03341 | -24.96620 | 37977 ft | 483 kts | 302° |
| 2026-05-07 09:56 | -1.99876 | -25.02383 | 37970 ft | 484 kts | 302° |
| 2026-05-07 09:56 | -1.96394 | -25.08172 | 37976 ft | 484 kts | 302° |
| 2026-05-07 09:57 | -1.92925 | -25.13940 | 37976 ft | 485 kts | 302° |
| 2026-05-07 09:57 | -1.89458 | -25.19704 | 37979 ft | 485 kts | 302° |
| 2026-05-07 09:58 | -1.85982 | -25.25482 | 37974 ft | 486 kts | 302° |
| 2026-05-07 09:58 | -1.82508 | -25.31257 | 37980 ft | 486 kts | 302° |
| 2026-05-07 09:59 | -1.79022 | -25.37051 | 37981 ft | 486 kts | 302° |
| 2026-05-07 09:59 | -1.75527 | -25.42859 | 37973 ft | 486 kts | 302° |
| 2026-05-07 10:00 | -1.72642 | -25.47654 | 37979 ft | 487 kts | 302° |
| 2026-05-07 10:00 | -1.69153 | -25.53452 | 37977 ft | 487 kts | 302° |
| 2026-05-07 10:01 | -1.65667 | -25.59243 | 37977 ft | 487 kts | 302° |
| 2026-05-07 10:01 | -1.62176 | -25.65044 | 37980 ft | 487 kts | 302° |
| 2026-05-07 10:02 | -1.58656 | -25.70891 | 37979 ft | 488 kts | 302° |
| 2026-05-07 10:02 | -1.55165 | -25.76691 | 37980 ft | 488 kts | 302° |
| 2026-05-07 10:03 | -1.51684 | -25.82473 | 37981 ft | 488 kts | 301° |
| 2026-05-07 10:03 | -1.48169 | -25.88309 | 37982 ft | 488 kts | 301° |
| 2026-05-07 10:04 | -1.44674 | -25.94114 | 37983 ft | 488 kts | 301° |
| 2026-05-07 10:04 | -1.41177 | -25.99922 | 37981 ft | 488 kts | 301° |
| 2026-05-07 10:05 | -1.37667 | -26.05752 | 37981 ft | 488 kts | 301° |
| 2026-05-07 10:05 | -1.34168 | -26.11560 | 37981 ft | 488 kts | 301° |
| 2026-05-07 10:06 | -1.30689 | -26.17337 | 37979 ft | 487 kts | 301° |
| 2026-05-07 10:06 | -1.27183 | -26.23158 | 37980 ft | 487 kts | 301° |
| 2026-05-07 10:07 | -1.23697 | -26.28945 | 37982 ft | 487 kts | 301° |
| 2026-05-07 10:07 | -1.20209 | -26.34734 | 37981 ft | 487 kts | 301° |
| 2026-05-07 10:08 | -1.16717 | -26.40531 | 37981 ft | 487 kts | 301° |
| 2026-05-07 10:08 | -1.13212 | -26.46348 | 37983 ft | 487 kts | 301° |
| 2026-05-07 10:09 | -1.09725 | -26.52135 | 37984 ft | 488 kts | 301° |
| 2026-05-07 10:09 | -1.06228 | -26.57940 | 37979 ft | 488 kts | 301° |
| 2026-05-07 10:10 | -1.02718 | -26.63764 | 37979 ft | 489 kts | 301° |
| 2026-05-07 10:10 | -0.99210 | -26.69585 | 37979 ft | 491 kts | 301° |
| 2026-05-07 10:11 | -0.95690 | -26.75426 | 37977 ft | 491 kts | 301° |
| 2026-05-07 10:11 | -0.92160 | -26.81283 | 37978 ft | 492 kts | 301° |
| 2026-05-07 10:12 | -0.88640 | -26.87124 | 37979 ft | 492 kts | 301° |
| 2026-05-07 10:12 | -0.85123 | -26.92957 | 37980 ft | 491 kts | 301° |
| 2026-05-07 10:13 | -0.81596 | -26.98810 | 37979 ft | 491 kts | 301° |
| 2026-05-07 10:13 | -0.78066 | -27.04665 | 37977 ft | 491 kts | 301° |
| 2026-05-07 10:14 | -0.74549 | -27.10499 | 37977 ft | 491 kts | 301° |
| 2026-05-07 10:14 | -0.71030 | -27.16337 | 37978 ft | 491 kts | 301° |
| 2026-05-07 10:15 | -0.67500 | -27.22193 | 37975 ft | 490 kts | 301° |
| 2026-05-07 10:15 | -0.63986 | -27.28021 | 37976 ft | 490 kts | 301° |
| 2026-05-07 10:16 | -0.60485 | -27.33828 | 37977 ft | 489 kts | 301° |
| 2026-05-07 10:16 | -0.56986 | -27.39630 | 37972 ft | 489 kts | 301° |
| 2026-05-07 10:17 | -0.53469 | -27.45465 | 37975 ft | 488 kts | 301° |
| 2026-05-07 10:17 | -0.49976 | -27.51257 | 37973 ft | 488 kts | 301° |
| 2026-05-07 10:18 | -0.46471 | -27.57071 | 37971 ft | 488 kts | 301° |
| 2026-05-07 10:18 | -0.42972 | -27.62873 | 37974 ft | 488 kts | 301° |
| 2026-05-07 10:19 | -0.39480 | -27.68665 | 37972 ft | 488 kts | 301° |
| 2026-05-07 10:19 | -0.35985 | -27.74461 | 37973 ft | 487 kts | 301° |
| 2026-05-07 10:20 | -0.32486 | -27.80263 | 37974 ft | 488 kts | 301° |
| 2026-05-07 10:20 | -0.28981 | -27.86075 | 37973 ft | 488 kts | 301° |
| 2026-05-07 10:21 | -0.25477 | -27.91885 | 37973 ft | 489 kts | 301° |
| 2026-05-07 10:21 | -0.21961 | -27.97717 | 37972 ft | 489 kts | 301° |
| 2026-05-07 10:22 | -0.18454 | -28.03532 | 37975 ft | 490 kts | 301° |
| 2026-05-07 10:22 | -0.14941 | -28.09357 | 37977 ft | 490 kts | 301° |
| 2026-05-07 10:23 | -0.11437 | -28.15167 | 37974 ft | 488 kts | 301° |
| 2026-05-07 10:23 | -0.07937 | -28.20970 | 37973 ft | 489 kts | 301° |
| 2026-05-07 10:24 | -0.04415 | -28.26810 | 37974 ft | 489 kts | 301° |
| 2026-05-07 10:24 | -0.00922 | -28.32602 | 38066 ft | 489 kts | 301° |
| 2026-05-07 10:24 | 0.00825 | -28.35499 | 38199 ft | 489 kts | 301° |
| 2026-05-07 10:25 | 0.02593 | -28.38431 | 38337 ft | 489 kts | 301° |
| 2026-05-07 10:25 | 0.04334 | -28.41317 | 38455 ft | 488 kts | 301° |
| 2026-05-07 10:25 | 0.06091 | -28.44230 | 38596 ft | 488 kts | 301° |
| 2026-05-07 10:25 | 0.07850 | -28.47147 | 38718 ft | 488 kts | 301° |
| 2026-05-07 10:26 | 0.09586 | -28.50026 | 38824 ft | 488 kts | 301° |
| 2026-05-07 10:26 | 0.11350 | -28.52951 | 38943 ft | 487 kts | 301° |
| 2026-05-07 10:26 | 0.13091 | -28.55838 | 39052 ft | 487 kts | 301° |
| 2026-05-07 10:26 | 0.14842 | -28.58741 | 39173 ft | 487 kts | 301° |
| 2026-05-07 10:27 | 0.16592 | -28.61644 | 39289 ft | 486 kts | 301° |
| 2026-05-07 10:27 | 0.18312 | -28.64495 | 39403 ft | 486 kts | 301° |
| 2026-05-07 10:27 | 0.20056 | -28.67387 | 39521 ft | 485 kts | 301° |
| 2026-05-07 10:27 | 0.21803 | -28.70284 | 39639 ft | 485 kts | 301° |
| 2026-05-07 10:28 | 0.23545 | -28.73174 | 39758 ft | 484 kts | 301° |
| 2026-05-07 10:28 | 0.25262 | -28.76021 | 39874 ft | 483 kts | 301° |
| 2026-05-07 10:28 | 0.27007 | -28.78914 | 39965 ft | 483 kts | 301° |
| 2026-05-07 10:29 | 0.30466 | -28.84651 | 39984 ft | 483 kts | 301° |
| 2026-05-07 10:29 | 0.33945 | -28.90420 | 39988 ft | 483 kts | 301° |
| 2026-05-07 10:30 | 0.39124 | -28.99008 | 39975 ft | 483 kts | 301° |
| 2026-05-07 10:30 | 0.42612 | -29.04792 | 39967 ft | 483 kts | 301° |
| 2026-05-07 10:31 | 0.46052 | -29.10496 | 39965 ft | 483 kts | 301° |
| 2026-05-07 10:31 | 0.49537 | -29.16277 | 39987 ft | 483 kts | 301° |
| 2026-05-07 10:32 | 0.52985 | -29.21996 | 39973 ft | 483 kts | 301° |
| 2026-05-07 10:32 | 0.56450 | -29.27742 | 39970 ft | 484 kts | 301° |
| 2026-05-07 10:33 | 0.59935 | -29.33524 | 39973 ft | 484 kts | 301° |
| 2026-05-07 10:33 | 0.63388 | -29.39250 | 39984 ft | 484 kts | 301° |
| 2026-05-07 10:34 | 0.66856 | -29.45003 | 39984 ft | 484 kts | 301° |
| 2026-05-07 10:34 | 0.70346 | -29.50792 | 39970 ft | 484 kts | 301° |
| 2026-05-07 10:35 | 0.73815 | -29.56546 | 39985 ft | 485 kts | 301° |
| 2026-05-07 10:35 | 0.77284 | -29.62301 | 39982 ft | 484 kts | 301° |
| 2026-05-07 10:36 | 0.80758 | -29.68063 | 39972 ft | 485 kts | 301° |
| 2026-05-07 10:36 | 0.84235 | -29.73832 | 39973 ft | 485 kts | 301° |
| 2026-05-07 10:37 | 0.87722 | -29.79617 | 39992 ft | 485 kts | 301° |
| 2026-05-07 10:37 | 0.91189 | -29.85369 | 39977 ft | 485 kts | 301° |
| 2026-05-07 10:38 | 0.94671 | -29.91148 | 39972 ft | 485 kts | 301° |
| 2026-05-07 10:38 | 0.98147 | -29.96914 | 39989 ft | 485 kts | 301° |
| 2026-05-07 10:39 | 1.01625 | -30.02681 | 39975 ft | 485 kts | 301° |
| 2026-05-07 10:39 | 1.05138 | -30.08458 | 39974 ft | 485 kts | 301° |
| 2026-05-07 10:40 | 1.08631 | -30.14193 | 39980 ft | 485 kts | 301° |
| 2026-05-07 10:40 | 1.12130 | -30.19945 | 39976 ft | 486 kts | 301° |
| 2026-05-07 10:41 | 1.15650 | -30.25735 | 39986 ft | 486 kts | 301° |
| 2026-05-07 10:41 | 1.19151 | -30.31497 | 39976 ft | 486 kts | 301° |
| 2026-05-07 10:42 | 1.22655 | -30.37262 | 39977 ft | 486 kts | 301° |
| 2026-05-07 10:42 | 1.26168 | -30.43043 | 39974 ft | 487 kts | 301° |
| 2026-05-07 10:43 | 1.29681 | -30.48824 | 39976 ft | 487 kts | 301° |
| 2026-05-07 10:43 | 1.33194 | -30.54607 | 39972 ft | 487 kts | 301° |
| 2026-05-07 10:44 | 1.36722 | -30.60415 | 39975 ft | 487 kts | 301° |
| 2026-05-07 10:44 | 1.40227 | -30.66183 | 39976 ft | 488 kts | 301° |
| 2026-05-07 10:45 | 1.43751 | -30.71983 | 39975 ft | 488 kts | 301° |
| 2026-05-07 10:45 | 1.47269 | -30.77775 | 39974 ft | 488 kts | 301° |
| 2026-05-07 10:46 | 1.50810 | -30.83604 | 39986 ft | 488 kts | 301° |
| 2026-05-07 10:46 | 1.54325 | -30.89392 | 39972 ft | 488 kts | 301° |
| 2026-05-07 10:47 | 1.57839 | -30.95179 | 39976 ft | 488 kts | 301° |
| 2026-05-07 10:47 | 1.61374 | -31.01001 | 39975 ft | 488 kts | 300° |
| 2026-05-07 10:48 | 1.64897 | -31.06803 | 39979 ft | 488 kts | 300° |
| 2026-05-07 10:48 | 1.68406 | -31.12582 | 39979 ft | 488 kts | 300° |
| 2026-05-07 10:49 | 1.71916 | -31.18364 | 39984 ft | 487 kts | 300° |
| 2026-05-07 10:49 | 1.75421 | -31.24138 | 39982 ft | 487 kts | 300° |
| 2026-05-07 10:50 | 1.78930 | -31.29919 | 39977 ft | 486 kts | 300° |
| 2026-05-07 10:50 | 1.82447 | -31.35713 | 39985 ft | 486 kts | 300° |
| 2026-05-07 10:51 | 1.85944 | -31.41476 | 39977 ft | 486 kts | 300° |
| 2026-05-07 10:51 | 1.89462 | -31.47273 | 39987 ft | 487 kts | 300° |
| 2026-05-07 10:52 | 1.92971 | -31.53057 | 39982 ft | 487 kts | 300° |
| 2026-05-07 10:52 | 1.96477 | -31.58834 | 39994 ft | 487 kts | 300° |
| 2026-05-07 10:53 | 1.99997 | -31.64637 | 39979 ft | 487 kts | 300° |
| 2026-05-07 10:53 | 2.03500 | -31.70413 | 39985 ft | 487 kts | 300° |
| 2026-05-07 10:54 | 2.07004 | -31.76190 | 39990 ft | 487 kts | 300° |
| 2026-05-07 10:54 | 2.10511 | -31.81972 | 39977 ft | 487 kts | 300° |
| 2026-05-07 10:55 | 2.14034 | -31.87782 | 39982 ft | 487 kts | 300° |
| 2026-05-07 10:55 | 2.17546 | -31.93575 | 39981 ft | 487 kts | 300° |
| 2026-05-07 10:56 | 2.20454 | -31.98372 | 39990 ft | 487 kts | 300° |
| 2026-05-07 10:56 | 2.23968 | -32.04169 | 39981 ft | 487 kts | 300° |
| 2026-05-07 10:57 | 2.27472 | -32.09949 | 39981 ft | 487 kts | 300° |
| 2026-05-07 10:57 | 2.30996 | -32.15765 | 39990 ft | 487 kts | 300° |
| 2026-05-07 10:58 | 2.34504 | -32.21552 | 39995 ft | 487 kts | 300° |
| 2026-05-07 10:58 | 2.37992 | -32.27309 | 39979 ft | 487 kts | 300° |
| 2026-05-07 10:59 | 2.41514 | -32.33123 | 39974 ft | 487 kts | 300° |
| 2026-05-07 10:59 | 2.45016 | -32.38904 | 39993 ft | 487 kts | 300° |
| 2026-05-07 11:00 | 2.48525 | -32.44697 | 39980 ft | 487 kts | 300° |
| 2026-05-07 11:00 | 2.52034 | -32.50491 | 39981 ft | 487 kts | 300° |
| 2026-05-07 11:01 | 2.55545 | -32.56290 | 39996 ft | 487 kts | 300° |
| 2026-05-07 11:01 | 2.59070 | -32.62111 | 39993 ft | 487 kts | 300° |
| 2026-05-07 11:02 | 2.62579 | -32.67908 | 39975 ft | 487 kts | 300° |
| 2026-05-07 11:02 | 2.66078 | -32.73689 | 39990 ft | 487 kts | 300° |
| 2026-05-07 11:03 | 2.69588 | -32.79488 | 39981 ft | 487 kts | 300° |
| 2026-05-07 11:03 | 2.73089 | -32.85274 | 39987 ft | 487 kts | 300° |
| 2026-05-07 11:04 | 2.76611 | -32.91095 | 39985 ft | 487 kts | 300° |
| 2026-05-07 11:04 | 2.80109 | -32.96877 | 39995 ft | 487 kts | 300° |
| 2026-05-07 11:05 | 2.83602 | -33.02652 | 39977 ft | 487 kts | 300° |
| 2026-05-07 11:05 | 2.87100 | -33.08435 | 39978 ft | 487 kts | 300° |
| 2026-05-07 11:06 | 2.90608 | -33.14238 | 39997 ft | 486 kts | 300° |
| 2026-05-07 11:06 | 2.94105 | -33.20021 | 39977 ft | 486 kts | 300° |
| 2026-05-07 11:07 | 2.97597 | -33.25798 | 39974 ft | 485 kts | 300° |
| 2026-05-07 11:07 | 3.01074 | -33.31550 | 39988 ft | 485 kts | 300° |
| 2026-05-07 11:08 | 3.04572 | -33.37337 | 39981 ft | 484 kts | 300° |
| 2026-05-07 11:08 | 3.08045 | -33.43085 | 39978 ft | 484 kts | 300° |
| 2026-05-07 11:09 | 3.11520 | -33.48838 | 39991 ft | 483 kts | 300° |
| 2026-05-07 11:09 | 3.15006 | -33.54608 | 39990 ft | 483 kts | 300° |
| 2026-05-07 11:10 | 3.18488 | -33.60373 | 39973 ft | 482 kts | 300° |
| 2026-05-07 11:10 | 3.21949 | -33.66104 | 39990 ft | 482 kts | 300° |
| 2026-05-07 11:11 | 3.25412 | -33.71840 | 39982 ft | 481 kts | 300° |
| 2026-05-07 11:11 | 3.28861 | -33.77554 | 39968 ft | 481 kts | 300° |
| 2026-05-07 11:12 | 3.32330 | -33.83300 | 39979 ft | 481 kts | 300° |
| 2026-05-07 11:12 | 3.35783 | -33.89023 | 39981 ft | 480 kts | 300° |
| 2026-05-07 11:13 | 3.39219 | -33.94717 | 39965 ft | 480 kts | 300° |
| 2026-05-07 11:13 | 3.42680 | -34.00454 | 39979 ft | 480 kts | 300° |
| 2026-05-07 11:14 | 3.46114 | -34.06147 | 39970 ft | 480 kts | 300° |
| 2026-05-07 11:14 | 3.49570 | -34.11878 | 39973 ft | 479 kts | 300° |
| 2026-05-07 11:15 | 3.53000 | -34.17567 | 39985 ft | 479 kts | 300° |
| 2026-05-07 11:15 | 3.56456 | -34.23299 | 39984 ft | 479 kts | 300° |
| 2026-05-07 11:16 | 3.59888 | -34.28993 | 39970 ft | 479 kts | 300° |
| 2026-05-07 11:16 | 3.63335 | -34.34714 | 39981 ft | 479 kts | 300° |
| 2026-05-07 11:17 | 3.66771 | -34.40415 | 39982 ft | 479 kts | 300° |
| 2026-05-07 11:17 | 3.70216 | -34.46135 | 39974 ft | 479 kts | 300° |
| 2026-05-07 11:18 | 3.73647 | -34.51831 | 39982 ft | 479 kts | 300° |
| 2026-05-07 11:18 | 3.77085 | -34.57540 | 39968 ft | 479 kts | 300° |
| 2026-05-07 11:19 | 3.80512 | -34.63231 | 39982 ft | 478 kts | 300° |
| 2026-05-07 11:19 | 3.83958 | -34.68955 | 39986 ft | 478 kts | 300° |
| 2026-05-07 11:20 | 3.87387 | -34.74654 | 39971 ft | 478 kts | 300° |
| 2026-05-07 11:20 | 3.90814 | -34.80349 | 39981 ft | 478 kts | 300° |
| 2026-05-07 11:21 | 3.94242 | -34.86046 | 39983 ft | 478 kts | 300° |
| 2026-05-07 11:21 | 3.97664 | -34.91734 | 39968 ft | 478 kts | 300° |
| 2026-05-07 11:22 | 4.01097 | -34.97444 | 39986 ft | 477 kts | 300° |
| 2026-05-07 11:22 | 4.04516 | -35.03129 | 39985 ft | 477 kts | 300° |
| 2026-05-07 11:23 | 4.07938 | -35.08821 | 39965 ft | 477 kts | 300° |
| 2026-05-07 11:23 | 4.11358 | -35.14512 | 39975 ft | 477 kts | 300° |
| 2026-05-07 11:24 | 4.14774 | -35.20196 | 39986 ft | 477 kts | 300° |
| 2026-05-07 11:24 | 4.18195 | -35.25891 | 39977 ft | 477 kts | 300° |
| 2026-05-07 11:25 | 4.21620 | -35.31594 | 39964 ft | 478 kts | 300° |
| 2026-05-07 11:25 | 4.25041 | -35.37290 | 39981 ft | 478 kts | 300° |
| 2026-05-07 11:26 | 4.28457 | -35.42979 | 39984 ft | 478 kts | 300° |
| 2026-05-07 11:26 | 4.31891 | -35.48700 | 39966 ft | 477 kts | 300° |
| 2026-05-07 11:27 | 4.35301 | -35.54381 | 39966 ft | 477 kts | 300° |
| 2026-05-07 11:27 | 4.38710 | -35.60062 | 39985 ft | 476 kts | 300° |
| 2026-05-07 11:28 | 4.42130 | -35.65764 | 39972 ft | 476 kts | 300° |
| 2026-05-07 11:28 | 4.45536 | -35.71443 | 39971 ft | 476 kts | 300° |
| 2026-05-07 11:29 | 4.48933 | -35.77108 | 39984 ft | 476 kts | 300° |
| 2026-05-07 11:29 | 4.52354 | -35.82814 | 39969 ft | 475 kts | 300° |
| 2026-05-07 11:30 | 4.55759 | -35.88496 | 39972 ft | 475 kts | 300° |
| 2026-05-07 11:30 | 4.59150 | -35.94156 | 39990 ft | 475 kts | 300° |
| 2026-05-07 11:31 | 4.62549 | -35.99829 | 39975 ft | 474 kts | 300° |
| 2026-05-07 11:31 | 4.65948 | -36.05503 | 39974 ft | 474 kts | 300° |
| 2026-05-07 11:32 | 4.71034 | -36.13998 | 39976 ft | 474 kts | 300° |
| 2026-05-07 11:33 | 4.74415 | -36.19645 | 39979 ft | 474 kts | 300° |
| 2026-05-07 11:33 | 4.77804 | -36.25308 | 39974 ft | 474 kts | 300° |
| 2026-05-07 11:34 | 4.81208 | -36.30998 | 39977 ft | 474 kts | 300° |
| 2026-05-07 11:34 | 4.84598 | -36.36664 | 39974 ft | 474 kts | 300° |
| 2026-05-07 11:35 | 4.87986 | -36.42329 | 39972 ft | 474 kts | 300° |
| 2026-05-07 11:35 | 4.91371 | -36.47992 | 39978 ft | 474 kts | 300° |
| 2026-05-07 11:36 | 4.94759 | -36.53658 | 39981 ft | 474 kts | 300° |
| 2026-05-07 11:36 | 4.98147 | -36.59329 | 39972 ft | 474 kts | 300° |
| 2026-05-07 11:37 | 5.01538 | -36.65005 | 39976 ft | 474 kts | 300° |
| 2026-05-07 11:37 | 5.04925 | -36.70674 | 39978 ft | 474 kts | 300° |
| 2026-05-07 11:38 | 5.08305 | -36.76334 | 39977 ft | 474 kts | 300° |
| 2026-05-07 11:38 | 5.11688 | -36.82002 | 39975 ft | 474 kts | 300° |
| 2026-05-07 11:39 | 5.15088 | -36.87699 | 39975 ft | 474 kts | 300° |
| 2026-05-07 11:39 | 5.18477 | -36.93379 | 39976 ft | 474 kts | 300° |
| 2026-05-07 11:40 | 5.21870 | -36.99066 | 39977 ft | 474 kts | 300° |
| 2026-05-07 11:40 | 5.25245 | -37.04724 | 39978 ft | 475 kts | 300° |
| 2026-05-07 11:41 | 5.28627 | -37.10397 | 39975 ft | 475 kts | 300° |
| 2026-05-07 11:41 | 5.32020 | -37.16089 | 39981 ft | 475 kts | 300° |
| 2026-05-07 11:42 | 5.35411 | -37.21779 | 39980 ft | 475 kts | 300° |
| 2026-05-07 11:42 | 5.38804 | -37.27474 | 39979 ft | 475 kts | 300° |
| 2026-05-07 11:43 | 5.42185 | -37.33151 | 39977 ft | 475 kts | 300° |
| 2026-05-07 11:43 | 5.45581 | -37.38854 | 39977 ft | 475 kts | 300° |
| 2026-05-07 11:44 | 5.48962 | -37.44535 | 39977 ft | 475 kts | 300° |
| 2026-05-07 11:44 | 5.52346 | -37.50219 | 39976 ft | 475 kts | 300° |
| 2026-05-07 11:45 | 5.55731 | -37.55909 | 39976 ft | 475 kts | 300° |
| 2026-05-07 11:45 | 5.59117 | -37.61602 | 39980 ft | 475 kts | 300° |
| 2026-05-07 11:46 | 5.62497 | -37.67286 | 39981 ft | 475 kts | 300° |
| 2026-05-07 11:46 | 5.65888 | -37.72991 | 39975 ft | 475 kts | 300° |
| 2026-05-07 11:47 | 5.69262 | -37.78668 | 39978 ft | 475 kts | 300° |
| 2026-05-07 11:47 | 5.72659 | -37.84384 | 39975 ft | 475 kts | 300° |
| 2026-05-07 11:48 | 5.76038 | -37.90074 | 39977 ft | 475 kts | 299° |
| 2026-05-07 11:48 | 5.79430 | -37.95787 | 39979 ft | 475 kts | 299° |
| 2026-05-07 11:49 | 5.82806 | -38.01474 | 39979 ft | 475 kts | 299° |
| 2026-05-07 11:49 | 5.86178 | -38.07155 | 39981 ft | 475 kts | 299° |
| 2026-05-07 11:50 | 5.89574 | -38.12879 | 39979 ft | 476 kts | 299° |
| 2026-05-07 11:50 | 5.92949 | -38.18570 | 39981 ft | 476 kts | 299° |
| 2026-05-07 11:51 | 5.96333 | -38.24276 | 39979 ft | 476 kts | 299° |
| 2026-05-07 11:51 | 5.99705 | -38.29965 | 39976 ft | 476 kts | 299° |
| 2026-05-07 11:52 | 6.02529 | -38.34731 | 39979 ft | 476 kts | 299° |
| 2026-05-07 11:52 | 6.05912 | -38.40442 | 39981 ft | 476 kts | 299° |
| 2026-05-07 11:53 | 6.09294 | -38.46152 | 39982 ft | 476 kts | 299° |
| 2026-05-07 11:53 | 6.12673 | -38.51859 | 39983 ft | 476 kts | 299° |
| 2026-05-07 11:54 | 6.16065 | -38.57589 | 39982 ft | 476 kts | 299° |
| 2026-05-07 11:54 | 6.19440 | -38.63294 | 39982 ft | 476 kts | 299° |
| 2026-05-07 11:55 | 6.22828 | -38.69020 | 39984 ft | 476 kts | 299° |
| 2026-05-07 11:55 | 6.26224 | -38.74763 | 39985 ft | 476 kts | 299° |
| 2026-05-07 11:56 | 6.29599 | -38.80474 | 39981 ft | 476 kts | 299° |
| 2026-05-07 11:56 | 6.32966 | -38.86171 | 39986 ft | 476 kts | 299° |
| 2026-05-07 11:57 | 6.36355 | -38.91908 | 39985 ft | 476 kts | 299° |
| 2026-05-07 11:57 | 6.39738 | -38.97635 | 39985 ft | 475 kts | 299° |
| 2026-05-07 11:58 | 6.43106 | -39.03339 | 39981 ft | 475 kts | 299° |
| 2026-05-07 11:58 | 6.46470 | -39.09038 | 39981 ft | 475 kts | 299° |
| 2026-05-07 11:59 | 6.49831 | -39.14736 | 39983 ft | 474 kts | 299° |
| 2026-05-07 11:59 | 6.53195 | -39.20438 | 39981 ft | 474 kts | 299° |
| 2026-05-07 12:00 | 6.56551 | -39.26130 | 40001 ft | 474 kts | 299° |
| 2026-05-07 12:00 | 6.59898 | -39.31808 | 39984 ft | 474 kts | 299° |
| 2026-05-07 12:01 | 6.63253 | -39.37501 | 40000 ft | 473 kts | 298° |
| 2026-05-07 12:01 | 6.66615 | -39.43209 | 39985 ft | 473 kts | 298° |
| 2026-05-07 12:02 | 6.69979 | -39.48922 | 39982 ft | 473 kts | 298° |
| 2026-05-07 12:02 | 6.73319 | -39.54594 | 39991 ft | 473 kts | 298° |
| 2026-05-07 12:03 | 6.76663 | -39.60278 | 39986 ft | 473 kts | 298° |
| 2026-05-07 12:03 | 6.80011 | -39.65968 | 39997 ft | 472 kts | 298° |
| 2026-05-07 12:04 | 6.83351 | -39.71647 | 39999 ft | 472 kts | 298° |
| 2026-05-07 12:04 | 6.86690 | -39.77327 | 39988 ft | 472 kts | 298° |
| 2026-05-07 12:05 | 6.90045 | -39.83038 | 40001 ft | 472 kts | 298° |
| 2026-05-07 12:05 | 6.93380 | -39.88714 | 39989 ft | 472 kts | 298° |
| 2026-05-07 12:06 | 6.96693 | -39.94356 | 39984 ft | 471 kts | 298° |
| 2026-05-07 12:06 | 7.00040 | -40.00056 | 39986 ft | 471 kts | 298° |
| 2026-05-07 12:07 | 7.03183 | -40.05799 | 39996 ft | 470 kts | 295° |
| 2026-05-07 12:07 | 7.06160 | -40.11693 | 39994 ft | 470 kts | 295° |
| 2026-05-07 12:08 | 7.09134 | -40.17545 | 39987 ft | 470 kts | 295° |
| 2026-05-07 12:08 | 7.12147 | -40.23382 | 39984 ft | 470 kts | 296° |
| 2026-05-07 12:09 | 7.15172 | -40.29207 | 39985 ft | 470 kts | 296° |
| 2026-05-07 12:09 | 7.18195 | -40.35028 | 40006 ft | 470 kts | 296° |
| 2026-05-07 12:10 | 7.21232 | -40.40882 | 40000 ft | 470 kts | 296° |
| 2026-05-07 12:10 | 7.24250 | -40.46702 | 39998 ft | 470 kts | 296° |
| 2026-05-07 12:11 | 7.27263 | -40.52517 | 39981 ft | 470 kts | 296° |
| 2026-05-07 12:11 | 7.30280 | -40.58340 | 39985 ft | 470 kts | 296° |
| 2026-05-07 12:12 | 7.33314 | -40.64201 | 39988 ft | 469 kts | 296° |
| 2026-05-07 12:12 | 7.36314 | -40.69995 | 39996 ft | 469 kts | 296° |
| 2026-05-07 12:13 | 7.39332 | -40.75828 | 39991 ft | 469 kts | 296° |
| 2026-05-07 12:13 | 7.42343 | -40.81649 | 39986 ft | 469 kts | 296° |
| 2026-05-07 12:14 | 7.45364 | -40.87492 | 39984 ft | 469 kts | 296° |
| 2026-05-07 12:14 | 7.48372 | -40.93312 | 39994 ft | 469 kts | 296° |
| 2026-05-07 12:15 | 7.51374 | -40.99122 | 40000 ft | 469 kts | 296° |
| 2026-05-07 12:15 | 7.54387 | -41.04956 | 39999 ft | 469 kts | 296° |
| 2026-05-07 12:16 | 7.57391 | -41.10775 | 39985 ft | 469 kts | 296° |
| 2026-05-07 12:16 | 7.60406 | -41.16620 | 39990 ft | 469 kts | 296° |
| 2026-05-07 12:17 | 7.63409 | -41.22441 | 39996 ft | 469 kts | 296° |
| 2026-05-07 12:17 | 7.66407 | -41.28256 | 39999 ft | 469 kts | 296° |
| 2026-05-07 12:18 | 7.69418 | -41.34097 | 39998 ft | 469 kts | 296° |
| 2026-05-07 12:18 | 7.72428 | -41.39939 | 39987 ft | 469 kts | 296° |
| 2026-05-07 12:19 | 7.75428 | -41.45765 | 39997 ft | 469 kts | 296° |
| 2026-05-07 12:19 | 7.78422 | -41.51581 | 40001 ft | 469 kts | 296° |
| 2026-05-07 12:20 | 7.81440 | -41.57446 | 40001 ft | 469 kts | 296° |
| 2026-05-07 12:20 | 7.84437 | -41.63273 | 39982 ft | 469 kts | 296° |
| 2026-05-07 12:21 | 7.87433 | -41.69101 | 39993 ft | 469 kts | 296° |
| 2026-05-07 12:21 | 7.90450 | -41.74970 | 40000 ft | 469 kts | 296° |
| 2026-05-07 12:22 | 7.93445 | -41.80800 | 39994 ft | 469 kts | 296° |
| 2026-05-07 12:22 | 7.96447 | -41.86647 | 39985 ft | 469 kts | 296° |
| 2026-05-07 12:23 | 7.99440 | -41.92477 | 39986 ft | 469 kts | 296° |
| 2026-05-07 12:23 | 8.02436 | -41.98317 | 40002 ft | 469 kts | 296° |
| 2026-05-07 12:24 | 8.05427 | -42.04150 | 40003 ft | 469 kts | 296° |
| 2026-05-07 12:24 | 8.08438 | -42.10021 | 39984 ft | 469 kts | 296° |
| 2026-05-07 12:25 | 8.11426 | -42.15854 | 39988 ft | 469 kts | 296° |
| 2026-05-07 12:25 | 8.14417 | -42.21693 | 40007 ft | 469 kts | 296° |
| 2026-05-07 12:26 | 8.17411 | -42.27541 | 40006 ft | 469 kts | 296° |
| 2026-05-07 12:26 | 8.20412 | -42.33406 | 39990 ft | 469 kts | 296° |
| 2026-05-07 12:27 | 8.23410 | -42.39267 | 40004 ft | 469 kts | 296° |
| 2026-05-07 12:27 | 8.26393 | -42.45099 | 40002 ft | 469 kts | 296° |
| 2026-05-07 12:28 | 8.29376 | -42.50936 | 39989 ft | 468 kts | 296° |
| 2026-05-07 12:28 | 8.32370 | -42.56796 | 39986 ft | 468 kts | 296° |
| 2026-05-07 12:29 | 8.35345 | -42.62622 | 40005 ft | 468 kts | 296° |
| 2026-05-07 12:29 | 8.38315 | -42.68442 | 40004 ft | 467 kts | 296° |
| 2026-05-07 12:30 | 8.41279 | -42.74252 | 39999 ft | 467 kts | 296° |
| 2026-05-07 12:30 | 8.44250 | -42.80077 | 39990 ft | 466 kts | 296° |
| 2026-05-07 12:31 | 8.47219 | -42.85902 | 39997 ft | 466 kts | 296° |
| 2026-05-07 12:31 | 8.50195 | -42.91743 | 40008 ft | 466 kts | 296° |
| 2026-05-07 12:32 | 8.53142 | -42.97529 | 39991 ft | 466 kts | 296° |
| 2026-05-07 12:32 | 8.56117 | -43.03373 | 40009 ft | 465 kts | 296° |
| 2026-05-07 12:33 | 8.60551 | -43.12089 | 40011 ft | 465 kts | 296° |
| 2026-05-07 12:33 | 8.63494 | -43.17876 | 39998 ft | 465 kts | 296° |
| 2026-05-07 12:34 | 8.66447 | -43.23686 | 40001 ft | 465 kts | 296° |
| 2026-05-07 12:34 | 8.69416 | -43.29530 | 40007 ft | 465 kts | 296° |
| 2026-05-07 12:35 | 8.72348 | -43.35305 | 39994 ft | 465 kts | 296° |
| 2026-05-07 12:35 | 8.75315 | -43.41150 | 40015 ft | 465 kts | 296° |
| 2026-05-07 12:36 | 8.78260 | -43.46955 | 40012 ft | 465 kts | 296° |
| 2026-05-07 12:36 | 8.81203 | -43.52759 | 40012 ft | 465 kts | 296° |
| 2026-05-07 12:37 | 8.84168 | -43.58608 | 39994 ft | 465 kts | 296° |
| 2026-05-07 12:37 | 8.87111 | -43.64418 | 39994 ft | 465 kts | 296° |
| 2026-05-07 12:38 | 8.90062 | -43.70244 | 40011 ft | 465 kts | 296° |
| 2026-05-07 12:38 | 8.92991 | -43.76032 | 40007 ft | 465 kts | 296° |
| 2026-05-07 12:39 | 8.95949 | -43.81877 | 40013 ft | 465 kts | 296° |
| 2026-05-07 12:39 | 8.98884 | -43.87681 | 39992 ft | 465 kts | 296° |
| 2026-05-07 12:40 | 9.01840 | -43.93530 | 39998 ft | 465 kts | 296° |
| 2026-05-07 12:40 | 9.04776 | -43.99341 | 40021 ft | 465 kts | 296° |
| 2026-05-07 12:41 | 9.07724 | -44.05180 | 40018 ft | 465 kts | 296° |
| 2026-05-07 12:41 | 9.10659 | -44.10995 | 39996 ft | 465 kts | 296° |
| 2026-05-07 12:42 | 9.13597 | -44.16819 | 40000 ft | 465 kts | 296° |
| 2026-05-07 12:42 | 9.16526 | -44.22627 | 40001 ft | 465 kts | 296° |
| 2026-05-07 12:43 | 9.19481 | -44.28492 | 40014 ft | 465 kts | 296° |
| 2026-05-07 12:43 | 9.22413 | -44.34312 | 40015 ft | 465 kts | 296° |
| 2026-05-07 12:44 | 9.25344 | -44.40132 | 40002 ft | 465 kts | 296° |
| 2026-05-07 12:44 | 9.28295 | -44.45996 | 40004 ft | 465 kts | 296° |
| 2026-05-07 12:45 | 9.31224 | -44.51820 | 40001 ft | 465 kts | 296° |
| 2026-05-07 12:45 | 9.34152 | -44.57643 | 40018 ft | 465 kts | 296° |
| 2026-05-07 12:46 | 9.37094 | -44.63499 | 40004 ft | 465 kts | 296° |
| 2026-05-07 12:46 | 9.39529 | -44.68346 | 40005 ft | 466 kts | 296° |
| 2026-05-07 12:47 | 9.42954 | -44.75167 | 40003 ft | 466 kts | 296° |
| 2026-05-07 12:47 | 9.45400 | -44.80043 | 40003 ft | 466 kts | 296° |
| 2026-05-07 12:48 | 9.48321 | -44.85867 | 40019 ft | 466 kts | 296° |
| 2026-05-07 12:48 | 9.51272 | -44.91752 | 40011 ft | 466 kts | 296° |
| 2026-05-07 12:49 | 9.54180 | -44.97557 | 40016 ft | 466 kts | 296° |
| 2026-05-07 12:49 | 9.57111 | -45.03408 | 40013 ft | 466 kts | 296° |
| 2026-05-07 12:50 | 9.60050 | -45.09280 | 40012 ft | 466 kts | 296° |
| 2026-05-07 12:50 | 9.62973 | -45.15123 | 40015 ft | 466 kts | 296° |
| 2026-05-07 12:51 | 9.65917 | -45.21011 | 40015 ft | 466 kts | 296° |
| 2026-05-07 12:51 | 9.68842 | -45.26863 | 40012 ft | 466 kts | 296° |
| 2026-05-07 12:52 | 9.71769 | -45.32723 | 40018 ft | 467 kts | 296° |
| 2026-05-07 12:52 | 9.74697 | -45.38587 | 40016 ft | 472 kts | 296° |
| 2026-05-07 12:53 | 9.77690 | -45.44587 | 40021 ft | 479 kts | 296° |
| 2026-05-07 12:53 | 9.80705 | -45.50631 | 40018 ft | 483 kts | 296° |
| 2026-05-07 12:54 | 9.83744 | -45.56727 | 40016 ft | 484 kts | 296° |
| 2026-05-07 12:54 | 9.86764 | -45.62788 | 40018 ft | 484 kts | 296° |
| 2026-05-07 12:55 | 9.89797 | -45.68880 | 40017 ft | 484 kts | 296° |
| 2026-05-07 12:55 | 9.92840 | -45.74993 | 40018 ft | 484 kts | 296° |
| 2026-05-07 12:56 | 9.95861 | -45.81067 | 40017 ft | 484 kts | 296° |
| 2026-05-07 12:56 | 9.98897 | -45.87174 | 40016 ft | 484 kts | 296° |
| 2026-05-07 12:57 | 10.01932 | -45.93284 | 40018 ft | 484 kts | 296° |
| 2026-05-07 12:57 | 10.04953 | -45.99367 | 40019 ft | 485 kts | 296° |
| 2026-05-07 12:58 | 10.07992 | -46.05491 | 40018 ft | 484 kts | 296° |
| 2026-05-07 12:58 | 10.11015 | -46.11585 | 40022 ft | 484 kts | 296° |
| 2026-05-07 12:59 | 10.14051 | -46.17711 | 40024 ft | 484 kts | 296° |
| 2026-05-07 12:59 | 10.17067 | -46.23798 | 40026 ft | 484 kts | 296° |
| 2026-05-07 13:00 | 10.20087 | -46.29897 | 40025 ft | 484 kts | 296° |
| 2026-05-07 13:00 | 10.23115 | -46.36016 | 40026 ft | 484 kts | 296° |
| 2026-05-07 13:01 | 10.26139 | -46.42128 | 40031 ft | 485 kts | 296° |
| 2026-05-07 13:01 | 10.29172 | -46.48264 | 40031 ft | 485 kts | 296° |
| 2026-05-07 13:02 | 10.32194 | -46.54382 | 40028 ft | 485 kts | 296° |
| 2026-05-07 13:02 | 10.35205 | -46.60480 | 40028 ft | 485 kts | 296° |
| 2026-05-07 13:03 | 10.38237 | -46.66623 | 40027 ft | 485 kts | 296° |
| 2026-05-07 13:03 | 10.41237 | -46.72706 | 40031 ft | 485 kts | 296° |
| 2026-05-07 13:04 | 10.44268 | -46.78856 | 40036 ft | 484 kts | 296° |
| 2026-05-07 13:04 | 10.47282 | -46.84974 | 40030 ft | 484 kts | 296° |
| 2026-05-07 13:05 | 10.50278 | -46.91059 | 40032 ft | 484 kts | 296° |
| 2026-05-07 13:05 | 10.53303 | -46.97205 | 40032 ft | 484 kts | 296° |
| 2026-05-07 13:06 | 10.56303 | -47.03307 | 40030 ft | 484 kts | 296° |
| 2026-05-07 13:06 | 10.59306 | -47.09416 | 40032 ft | 484 kts | 296° |
| 2026-05-07 13:07 | 10.62316 | -47.15544 | 40032 ft | 484 kts | 296° |
| 2026-05-07 13:07 | 10.65318 | -47.21661 | 40035 ft | 484 kts | 296° |
| 2026-05-07 13:08 | 10.68326 | -47.27791 | 40034 ft | 484 kts | 296° |
| 2026-05-07 13:08 | 10.71335 | -47.33928 | 40035 ft | 484 kts | 296° |
| 2026-05-07 13:09 | 10.74333 | -47.40047 | 40036 ft | 484 kts | 296° |
| 2026-05-07 13:09 | 10.77336 | -47.46179 | 40036 ft | 484 kts | 295° |
| 2026-05-07 13:10 | 10.80330 | -47.52297 | 40033 ft | 485 kts | 296° |
| 2026-05-07 13:10 | 10.83335 | -47.58439 | 40034 ft | 485 kts | 295° |
| 2026-05-07 13:11 | 10.86347 | -47.64601 | 40035 ft | 485 kts | 296° |
| 2026-05-07 13:11 | 10.89339 | -47.70725 | 40033 ft | 485 kts | 296° |
| 2026-05-07 13:12 | 10.92352 | -47.76897 | 40035 ft | 486 kts | 295° |
| 2026-05-07 13:12 | 10.95340 | -47.83021 | 40034 ft | 486 kts | 295° |
| 2026-05-07 13:13 | 10.98359 | -47.89212 | 40042 ft | 486 kts | 295° |
| 2026-05-07 13:13 | 11.01353 | -47.95355 | 40038 ft | 486 kts | 295° |
| 2026-05-07 13:14 | 11.04346 | -48.01500 | 40039 ft | 486 kts | 295° |
| 2026-05-07 13:14 | 11.07356 | -48.07685 | 40039 ft | 486 kts | 295° |
| 2026-05-07 13:15 | 11.10346 | -48.13830 | 40040 ft | 486 kts | 295° |
| 2026-05-07 13:15 | 11.13359 | -48.20028 | 40042 ft | 486 kts | 295° |
| 2026-05-07 13:16 | 11.16346 | -48.26178 | 40042 ft | 486 kts | 295° |
| 2026-05-07 13:16 | 11.19346 | -48.32355 | 40043 ft | 486 kts | 295° |
| 2026-05-07 13:17 | 11.22341 | -48.38527 | 40040 ft | 486 kts | 295° |
| 2026-05-07 13:17 | 11.25333 | -48.44698 | 40041 ft | 486 kts | 295° |
| 2026-05-07 13:18 | 11.28317 | -48.50856 | 40039 ft | 486 kts | 295° |
| 2026-05-07 13:18 | 11.31304 | -48.57023 | 40045 ft | 486 kts | 295° |
| 2026-05-07 13:19 | 11.34291 | -48.63195 | 40041 ft | 486 kts | 295° |
| 2026-05-07 13:19 | 11.37280 | -48.69375 | 40043 ft | 487 kts | 295° |
| 2026-05-07 13:20 | 11.40280 | -48.75581 | 40042 ft | 487 kts | 295° |
| 2026-05-07 13:20 | 11.43263 | -48.81757 | 40045 ft | 487 kts | 295° |
| 2026-05-07 13:21 | 11.46245 | -48.87932 | 40045 ft | 487 kts | 295° |
| 2026-05-07 13:21 | 11.49236 | -48.94132 | 40048 ft | 487 kts | 295° |
| 2026-05-07 13:22 | 11.52221 | -49.00324 | 40042 ft | 488 kts | 295° |
| 2026-05-07 13:22 | 11.55224 | -49.06557 | 40042 ft | 488 kts | 295° |
| 2026-05-07 13:23 | 11.58217 | -49.12775 | 40044 ft | 488 kts | 295° |
| 2026-05-07 13:23 | 11.61205 | -49.18983 | 40045 ft | 488 kts | 295° |
| 2026-05-07 13:24 | 11.64192 | -49.25194 | 40045 ft | 489 kts | 295° |
| 2026-05-07 13:24 | 11.67176 | -49.31404 | 40045 ft | 489 kts | 295° |
| 2026-05-07 13:25 | 11.70182 | -49.37664 | 40046 ft | 489 kts | 295° |
| 2026-05-07 13:25 | 11.73153 | -49.43855 | 40044 ft | 489 kts | 295° |
| 2026-05-07 13:26 | 11.76146 | -49.50094 | 40046 ft | 490 kts | 295° |
| 2026-05-07 13:26 | 11.79135 | -49.56332 | 40045 ft | 490 kts | 295° |
| 2026-05-07 13:27 | 11.82141 | -49.62607 | 40044 ft | 490 kts | 295° |
| 2026-05-07 13:27 | 11.85116 | -49.68824 | 40046 ft | 490 kts | 295° |
| 2026-05-07 13:28 | 11.88102 | -49.75066 | 40045 ft | 490 kts | 295° |
| 2026-05-07 13:28 | 11.91091 | -49.81320 | 40049 ft | 491 kts | 295° |
| 2026-05-07 13:29 | 11.94101 | -49.87622 | 40047 ft | 491 kts | 295° |
| 2026-05-07 13:29 | 11.97087 | -49.93877 | 40050 ft | 491 kts | 295° |
| 2026-05-07 13:30 | 12.00083 | -50.00158 | 40047 ft | 492 kts | 295° |
| 2026-05-07 13:30 | 12.03051 | -50.06455 | 40050 ft | 492 kts | 294° |
| 2026-05-07 13:31 | 12.05988 | -50.12758 | 40050 ft | 492 kts | 294° |
| 2026-05-07 13:31 | 12.08924 | -50.19059 | 40047 ft | 492 kts | 294° |
| 2026-05-07 13:32 | 12.11867 | -50.25363 | 40051 ft | 492 kts | 294° |
| 2026-05-07 13:32 | 12.14804 | -50.31653 | 40052 ft | 493 kts | 294° |
| 2026-05-07 13:33 | 12.17763 | -50.37996 | 40051 ft | 493 kts | 294° |
| 2026-05-07 13:33 | 12.20705 | -50.44307 | 40051 ft | 493 kts | 294° |
| 2026-05-07 13:34 | 12.25131 | -50.53810 | 40051 ft | 493 kts | 294° |
| 2026-05-07 13:35 | 12.28070 | -50.60127 | 40050 ft | 493 kts | 294° |
| 2026-05-07 13:35 | 12.31004 | -50.66436 | 40051 ft | 493 kts | 294° |
| 2026-05-07 13:36 | 12.33943 | -50.72760 | 40051 ft | 493 kts | 294° |
| 2026-05-07 13:36 | 12.36895 | -50.79118 | 40054 ft | 493 kts | 294° |
| 2026-05-07 13:37 | 12.39832 | -50.85447 | 40054 ft | 493 kts | 294° |
| 2026-05-07 13:37 | 12.42770 | -50.91784 | 40053 ft | 493 kts | 294° |
| 2026-05-07 13:38 | 12.45696 | -50.98099 | 40054 ft | 493 kts | 294° |
| 2026-05-07 13:38 | 12.48623 | -51.04423 | 40054 ft | 493 kts | 294° |
| 2026-05-07 13:39 | 12.51563 | -51.10777 | 40054 ft | 493 kts | 294° |
| 2026-05-07 13:39 | 12.54497 | -51.17124 | 40055 ft | 493 kts | 294° |
| 2026-05-07 13:40 | 12.57431 | -51.23476 | 40053 ft | 493 kts | 294° |
| 2026-05-07 13:40 | 12.60353 | -51.29806 | 40053 ft | 493 kts | 294° |
| 2026-05-07 13:41 | 12.63276 | -51.36142 | 40055 ft | 493 kts | 294° |
| 2026-05-07 13:41 | 12.66192 | -51.42469 | 40056 ft | 493 kts | 294° |
| 2026-05-07 13:42 | 12.69112 | -51.48809 | 40056 ft | 493 kts | 294° |
| 2026-05-07 13:42 | 12.72041 | -51.55172 | 40055 ft | 493 kts | 294° |
| 2026-05-07 13:43 | 12.74960 | -51.61519 | 40057 ft | 493 kts | 294° |
| 2026-05-07 13:43 | 12.77874 | -51.67859 | 40060 ft | 493 kts | 294° |
| 2026-05-07 13:44 | 12.80778 | -51.74184 | 40056 ft | 493 kts | 294° |
| 2026-05-07 13:44 | 12.83705 | -51.80562 | 40060 ft | 493 kts | 294° |
| 2026-05-07 13:45 | 12.86602 | -51.86881 | 40059 ft | 493 kts | 294° |
| 2026-05-07 13:45 | 12.89029 | -51.92179 | 40058 ft | 493 kts | 294° |
| 2026-05-07 13:46 | 12.91953 | -51.98563 | 40055 ft | 492 kts | 294° |
| 2026-05-07 13:46 | 12.94851 | -52.04897 | 40058 ft | 492 kts | 294° |
| 2026-05-07 13:47 | 12.97748 | -52.11233 | 40059 ft | 492 kts | 294° |
| 2026-05-07 13:47 | 13.00647 | -52.17580 | 40057 ft | 492 kts | 294° |
| 2026-05-07 13:48 | 13.03558 | -52.23955 | 40056 ft | 491 kts | 294° |
| 2026-05-07 13:48 | 13.06430 | -52.30253 | 40055 ft | 491 kts | 294° |
| 2026-05-07 13:49 | 13.09335 | -52.36625 | 40060 ft | 491 kts | 294° |
| 2026-05-07 13:49 | 13.12221 | -52.42963 | 40059 ft | 490 kts | 294° |
| 2026-05-07 13:50 | 13.15088 | -52.49262 | 40057 ft | 490 kts | 293° |
| 2026-05-07 13:50 | 13.17980 | -52.55622 | 40061 ft | 490 kts | 293° |
| 2026-05-07 13:51 | 13.20846 | -52.61930 | 40064 ft | 489 kts | 293° |
| 2026-05-07 13:51 | 13.23718 | -52.68255 | 40064 ft | 489 kts | 293° |
| 2026-05-07 13:52 | 13.26602 | -52.74613 | 40059 ft | 489 kts | 293° |
| 2026-05-07 13:52 | 13.29462 | -52.80921 | 40058 ft | 489 kts | 293° |
| 2026-05-07 13:53 | 13.32327 | -52.87246 | 40061 ft | 489 kts | 293° |
| 2026-05-07 13:53 | 13.35192 | -52.93576 | 40059 ft | 488 kts | 293° |
| 2026-05-07 13:54 | 13.38040 | -52.99873 | 40059 ft | 488 kts | 293° |
| 2026-05-07 13:54 | 13.40898 | -53.06198 | 40062 ft | 488 kts | 293° |
| 2026-05-07 13:55 | 13.43752 | -53.12517 | 40063 ft | 487 kts | 293° |
| 2026-05-07 13:55 | 13.46597 | -53.18823 | 40063 ft | 487 kts | 293° |
| 2026-05-07 13:56 | 13.49437 | -53.25122 | 40063 ft | 487 kts | 293° |
| 2026-05-07 13:56 | 13.52279 | -53.31433 | 40065 ft | 487 kts | 293° |
| 2026-05-07 13:57 | 13.55117 | -53.37736 | 40066 ft | 486 kts | 293° |
| 2026-05-07 13:57 | 13.57961 | -53.44059 | 40062 ft | 486 kts | 293° |
| 2026-05-07 13:58 | 13.60789 | -53.50352 | 40061 ft | 486 kts | 293° |
| 2026-05-07 13:58 | 13.63633 | -53.56686 | 40062 ft | 486 kts | 293° |
| 2026-05-07 13:59 | 13.66459 | -53.62985 | 40064 ft | 485 kts | 293° |
| 2026-05-07 13:59 | 13.69270 | -53.69254 | 40063 ft | 485 kts | 293° |
| 2026-05-07 14:00 | 13.72108 | -53.75589 | 40062 ft | 485 kts | 292° |
| 2026-05-07 14:00 | 13.74923 | -53.81879 | 40057 ft | 485 kts | 292° |
| 2026-05-07 14:01 | 13.77730 | -53.88157 | 40062 ft | 485 kts | 292° |
| 2026-05-07 14:01 | 13.80538 | -53.94439 | 40065 ft | 485 kts | 292° |
| 2026-05-07 14:02 | 13.83360 | -54.00761 | 40065 ft | 485 kts | 292° |
| 2026-05-07 14:02 | 13.86167 | -54.07052 | 40069 ft | 485 kts | 292° |
| 2026-05-07 14:03 | 13.88988 | -54.13379 | 40069 ft | 485 kts | 292° |
| 2026-05-07 14:03 | 13.91787 | -54.19663 | 40068 ft | 485 kts | 292° |
| 2026-05-07 14:04 | 13.94598 | -54.25978 | 40068 ft | 485 kts | 292° |
| 2026-05-07 14:04 | 13.97414 | -54.32311 | 40067 ft | 486 kts | 292° |
| 2026-05-07 14:05 | 14.00216 | -54.38618 | 40065 ft | 486 kts | 292° |
| 2026-05-07 14:05 | 14.03021 | -54.44936 | 40068 ft | 486 kts | 292° |
| 2026-05-07 14:06 | 14.05837 | -54.51283 | 40068 ft | 486 kts | 292° |
| 2026-05-07 14:06 | 14.08639 | -54.57605 | 40067 ft | 486 kts | 292° |
| 2026-05-07 14:07 | 14.11447 | -54.63944 | 40068 ft | 485 kts | 292° |
| 2026-05-07 14:07 | 14.14235 | -54.70246 | 40069 ft | 485 kts | 292° |
| 2026-05-07 14:08 | 14.17017 | -54.76538 | 40069 ft | 484 kts | 292° |
| 2026-05-07 14:08 | 14.19815 | -54.82872 | 40073 ft | 484 kts | 292° |
| 2026-05-07 14:09 | 14.22596 | -54.89173 | 40067 ft | 483 kts | 291° |
| 2026-05-07 14:09 | 14.25372 | -54.95467 | 40068 ft | 483 kts | 291° |
| 2026-05-07 14:10 | 14.28143 | -55.01755 | 40071 ft | 482 kts | 291° |
| 2026-05-07 14:10 | 14.30911 | -55.08053 | 40069 ft | 482 kts | 291° |
| 2026-05-07 14:11 | 14.33669 | -55.14337 | 40073 ft | 481 kts | 291° |
| 2026-05-07 14:11 | 14.36423 | -55.20616 | 40070 ft | 481 kts | 291° |
| 2026-05-07 14:12 | 14.39176 | -55.26898 | 40070 ft | 481 kts | 291° |
| 2026-05-07 14:12 | 14.41922 | -55.33166 | 40074 ft | 481 kts | 291° |
| 2026-05-07 14:13 | 14.44683 | -55.39475 | 40071 ft | 481 kts | 291° |
| 2026-05-07 14:13 | 14.47424 | -55.45744 | 40069 ft | 480 kts | 291° |
| 2026-05-07 14:14 | 14.50161 | -55.52009 | 40073 ft | 480 kts | 291° |
| 2026-05-07 14:14 | 14.52903 | -55.58290 | 40070 ft | 480 kts | 291° |
| 2026-05-07 14:15 | 14.55646 | -55.64580 | 40071 ft | 479 kts | 291° |
| 2026-05-07 14:15 | 14.58374 | -55.70840 | 40068 ft | 479 kts | 291° |
| 2026-05-07 14:16 | 14.61098 | -55.77098 | 40068 ft | 479 kts | 291° |
| 2026-05-07 14:16 | 14.63835 | -55.83390 | 40068 ft | 478 kts | 291° |
| 2026-05-07 14:17 | 14.66556 | -55.89651 | 40072 ft | 478 kts | 290° |
| 2026-05-07 14:17 | 14.69267 | -55.95894 | 40073 ft | 477 kts | 290° |
| 2026-05-07 14:18 | 14.71977 | -56.02141 | 40075 ft | 477 kts | 290° |
| 2026-05-07 14:18 | 14.74679 | -56.08372 | 40072 ft | 477 kts | 290° |
| 2026-05-07 14:19 | 14.77385 | -56.14621 | 40070 ft | 476 kts | 290° |
| 2026-05-07 14:19 | 14.80085 | -56.20862 | 40071 ft | 476 kts | 290° |
| 2026-05-07 14:20 | 14.82787 | -56.27110 | 40078 ft | 476 kts | 290° |
| 2026-05-07 14:20 | 14.85474 | -56.33330 | 40072 ft | 475 kts | 290° |
| 2026-05-07 14:21 | 14.88176 | -56.39590 | 40077 ft | 475 kts | 290° |
| 2026-05-07 14:21 | 14.90854 | -56.45800 | 40076 ft | 474 kts | 290° |
| 2026-05-07 14:22 | 14.93534 | -56.52019 | 40073 ft | 474 kts | 290° |
| 2026-05-07 14:22 | 14.96216 | -56.58250 | 40073 ft | 474 kts | 290° |
| 2026-05-07 14:23 | 14.98898 | -56.64487 | 40076 ft | 473 kts | 290° |
| 2026-05-07 14:23 | 15.01565 | -56.70693 | 40075 ft | 473 kts | 289° |
| 2026-05-07 14:24 | 15.04238 | -56.76919 | 40076 ft | 473 kts | 289° |
| 2026-05-07 14:24 | 15.06896 | -56.83115 | 40073 ft | 472 kts | 289° |
| 2026-05-07 14:25 | 15.09559 | -56.89328 | 40072 ft | 472 kts | 289° |
| 2026-05-07 14:25 | 15.12218 | -56.95538 | 40074 ft | 471 kts | 289° |
| 2026-05-07 14:26 | 15.14864 | -57.01724 | 40072 ft | 471 kts | 289° |
| 2026-05-07 14:26 | 15.17510 | -57.07914 | 40076 ft | 471 kts | 289° |
| 2026-05-07 14:27 | 15.20160 | -57.14119 | 40074 ft | 470 kts | 289° |
| 2026-05-07 14:27 | 15.22798 | -57.20301 | 40081 ft | 470 kts | 289° |
| 2026-05-07 14:28 | 15.25427 | -57.26467 | 40086 ft | 470 kts | 289° |
| 2026-05-07 14:28 | 15.28067 | -57.32666 | 40084 ft | 469 kts | 289° |
| 2026-05-07 14:29 | 15.30691 | -57.38833 | 40072 ft | 469 kts | 289° |
| 2026-05-07 14:29 | 15.33316 | -57.45007 | 40077 ft | 468 kts | 289° |
| 2026-05-07 14:30 | 15.35935 | -57.51173 | 40076 ft | 468 kts | 289° |
| 2026-05-07 14:30 | 15.38566 | -57.57373 | 40077 ft | 468 kts | 289° |
| 2026-05-07 14:31 | 15.41173 | -57.63522 | 40079 ft | 468 kts | 289° |
| 2026-05-07 14:31 | 15.43783 | -57.69682 | 40078 ft | 467 kts | 289° |
| 2026-05-07 14:32 | 15.46405 | -57.75877 | 40075 ft | 467 kts | 289° |
| 2026-05-07 14:32 | 15.49005 | -57.82024 | 40077 ft | 467 kts | 288° |
| 2026-05-07 14:33 | 15.51608 | -57.88186 | 40077 ft | 467 kts | 288° |
| 2026-05-07 14:33 | 15.54211 | -57.94354 | 40082 ft | 467 kts | 288° |
| 2026-05-07 14:34 | 15.56805 | -58.00503 | 40082 ft | 467 kts | 288° |
| 2026-05-07 14:34 | 15.59416 | -58.06701 | 40081 ft | 466 kts | 288° |
| 2026-05-07 14:35 | 15.62005 | -58.12851 | 40080 ft | 466 kts | 288° |
| 2026-05-07 14:35 | 15.64597 | -58.19015 | 40078 ft | 466 kts | 288° |
| 2026-05-07 14:36 | 15.67180 | -58.25153 | 40078 ft | 466 kts | 288° |
| 2026-05-07 14:36 | 15.69774 | -58.31315 | 40081 ft | 466 kts | 288° |
| 2026-05-07 14:37 | 15.72374 | -58.37500 | 40081 ft | 466 kts | 288° |
| 2026-05-07 14:37 | 15.76242 | -58.46713 | 40081 ft | 466 kts | 288° |
| 2026-05-07 14:38 | 15.78839 | -58.52908 | 40083 ft | 466 kts | 288° |
| 2026-05-07 14:38 | 15.81405 | -58.59033 | 40082 ft | 465 kts | 288° |
| 2026-05-07 14:39 | 15.84000 | -58.65211 | 40079 ft | 466 kts | 288° |
| 2026-05-07 14:39 | 15.86604 | -58.71370 | 40082 ft | 465 kts | 288° |
| 2026-05-07 14:40 | 15.89201 | -58.77513 | 40077 ft | 465 kts | 288° |
| 2026-05-07 14:40 | 15.91364 | -58.82643 | 40078 ft | 465 kts | 288° |
| 2026-05-07 14:41 | 15.94382 | -58.89810 | 40081 ft | 465 kts | 288° |
| 2026-05-07 14:41 | 15.96977 | -58.95980 | 40082 ft | 465 kts | 288° |
| 2026-05-07 14:42 | 15.99551 | -59.02106 | 40077 ft | 465 kts | 288° |
| 2026-05-07 14:42 | 16.02284 | -59.08208 | 40080 ft | 467 kts | 292° |
| 2026-05-07 14:43 | 16.04761 | -59.13242 | 40084 ft | 467 kts | 291° |
| 2026-05-07 14:43 | 16.07680 | -59.19258 | 40082 ft | 467 kts | 291° |
| 2026-05-07 14:44 | 16.10600 | -59.25325 | 40088 ft | 467 kts | 291° |
| 2026-05-07 14:44 | 16.13491 | -59.31354 | 40089 ft | 467 kts | 291° |
| 2026-05-07 14:45 | 16.16377 | -59.37377 | 40077 ft | 467 kts | 291° |
| 2026-05-07 14:45 | 16.19263 | -59.43410 | 40080 ft | 467 kts | 291° |
| 2026-05-07 14:46 | 16.22161 | -59.49473 | 40086 ft | 467 kts | 292° |
| 2026-05-07 14:46 | 16.25050 | -59.55522 | 40084 ft | 467 kts | 292° |
| 2026-05-07 14:47 | 16.27940 | -59.61579 | 40082 ft | 467 kts | 292° |
| 2026-05-07 14:47 | 16.30816 | -59.67612 | 40083 ft | 467 kts | 292° |
| 2026-05-07 14:48 | 16.33700 | -59.73667 | 40084 ft | 467 kts | 292° |
| 2026-05-07 14:48 | 16.36578 | -59.79715 | 40083 ft | 467 kts | 292° |
| 2026-05-07 14:49 | 16.39473 | -59.85805 | 40085 ft | 468 kts | 292° |
| 2026-05-07 14:49 | 16.42349 | -59.91860 | 40088 ft | 468 kts | 292° |
| 2026-05-07 14:50 | 16.45225 | -59.97919 | 40088 ft | 468 kts | 292° |
| 2026-05-07 14:50 | 16.48118 | -60.04021 | 40084 ft | 469 kts | 292° |
| 2026-05-07 14:51 | 16.51001 | -60.10107 | 40087 ft | 470 kts | 292° |
| 2026-05-07 14:51 | 16.53901 | -60.16235 | 40085 ft | 470 kts | 293° |
| 2026-05-07 14:52 | 16.56786 | -60.22336 | 40082 ft | 471 kts | 293° |
| 2026-05-07 14:52 | 16.59677 | -60.28456 | 40087 ft | 471 kts | 293° |
| 2026-05-07 14:53 | 16.62571 | -60.34587 | 40086 ft | 472 kts | 293° |
| 2026-05-07 14:53 | 16.65457 | -60.40708 | 40083 ft | 472 kts | 293° |
| 2026-05-07 14:54 | 16.68370 | -60.46890 | 40085 ft | 473 kts | 294° |
| 2026-05-07 14:54 | 16.71264 | -60.53039 | 40085 ft | 473 kts | 294° |
| 2026-05-07 14:55 | 16.74156 | -60.59188 | 40088 ft | 473 kts | 294° |
| 2026-05-07 14:55 | 16.77042 | -60.65331 | 40090 ft | 474 kts | 294° |
| 2026-05-07 14:56 | 16.79946 | -60.71517 | 40083 ft | 474 kts | 294° |
| 2026-05-07 14:56 | 16.82855 | -60.77721 | 40086 ft | 474 kts | 294° |
| 2026-05-07 14:57 | 16.85742 | -60.83883 | 40084 ft | 474 kts | 294° |
| 2026-05-07 14:57 | 16.88633 | -60.90060 | 40092 ft | 475 kts | 294° |
| 2026-05-07 14:58 | 16.91524 | -60.96243 | 40088 ft | 475 kts | 294° |
| 2026-05-07 14:58 | 16.94419 | -61.02440 | 40091 ft | 475 kts | 294° |
| 2026-05-07 14:59 | 16.97324 | -61.08665 | 40088 ft | 475 kts | 294° |
| 2026-05-07 14:59 | 17.00211 | -61.14856 | 40091 ft | 476 kts | 294° |
| 2026-05-07 15:00 | 17.03101 | -61.21061 | 40090 ft | 476 kts | 294° |
| 2026-05-07 15:00 | 17.06001 | -61.27292 | 40090 ft | 476 kts | 294° |
| 2026-05-07 15:01 | 17.08892 | -61.33511 | 40089 ft | 476 kts | 294° |
| 2026-05-07 15:01 | 17.11783 | -61.39736 | 40089 ft | 477 kts | 294° |
| 2026-05-07 15:02 | 17.14677 | -61.45972 | 40035 ft | 473 kts | 294° |
| 2026-05-07 15:02 | 17.16087 | -61.49011 | 39776 ft | 464 kts | 294° |
| 2026-05-07 15:02 | 17.17492 | -61.52042 | 39280 ft | 460 kts | 295° |
| 2026-05-07 15:03 | 17.18894 | -61.55070 | 38645 ft | 461 kts | 295° |
| 2026-05-07 15:03 | 17.20284 | -61.58075 | 37886 ft | 462 kts | 295° |
| 2026-05-07 15:03 | 17.21689 | -61.61109 | 37174 ft | 463 kts | 295° |
| 2026-05-07 15:03 | 17.23082 | -61.64122 | 36455 ft | 464 kts | 295° |
| 2026-05-07 15:04 | 17.24494 | -61.67175 | 35740 ft | 465 kts | 295° |
| 2026-05-07 15:04 | 17.25890 | -61.70196 | 35045 ft | 466 kts | 296° |
| 2026-05-07 15:04 | 17.27303 | -61.73255 | 34447 ft | 465 kts | 296° |
| 2026-05-07 15:04 | 17.28697 | -61.76274 | 33900 ft | 462 kts | 296° |
| 2026-05-07 15:05 | 17.30093 | -61.79299 | 33315 ft | 459 kts | 296° |
| 2026-05-07 15:05 | 17.31479 | -61.82301 | 32721 ft | 456 kts | 296° |
| 2026-05-07 15:05 | 17.32847 | -61.85268 | 32179 ft | 453 kts | 296° |
| 2026-05-07 15:05 | 17.34222 | -61.88250 | 31644 ft | 450 kts | 296° |
| 2026-05-07 15:06 | 17.35560 | -61.91156 | 31119 ft | 447 kts | 295° |
| 2026-05-07 15:06 | 17.36911 | -61.94090 | 30604 ft | 445 kts | 295° |
| 2026-05-07 15:06 | 17.38254 | -61.97006 | 30076 ft | 442 kts | 295° |
| 2026-05-07 15:06 | 17.39588 | -61.99908 | 29495 ft | 439 kts | 295° |
| 2026-05-07 15:07 | 17.40892 | -62.02746 | 28967 ft | 435 kts | 295° |
| 2026-05-07 15:07 | 17.42206 | -62.05604 | 28456 ft | 431 kts | 295° |
| 2026-05-07 15:07 | 17.43489 | -62.08399 | 27977 ft | 427 kts | 295° |
| 2026-05-07 15:07 | 17.44776 | -62.11202 | 27461 ft | 424 kts | 295° |
| 2026-05-07 15:08 | 17.46053 | -62.13986 | 26971 ft | 420 kts | 295° |
| 2026-05-07 15:08 | 17.47315 | -62.16737 | 26464 ft | 417 kts | 296° |
| 2026-05-07 15:08 | 17.48556 | -62.19442 | 25985 ft | 413 kts | 295° |
| 2026-05-07 15:08 | 17.49795 | -62.22146 | 25511 ft | 410 kts | 296° |
| 2026-05-07 15:09 | 17.51028 | -62.24838 | 25034 ft | 407 kts | 296° |
| 2026-05-07 15:09 | 17.52251 | -62.27508 | 24572 ft | 404 kts | 296° |
| 2026-05-07 15:09 | 17.53450 | -62.30128 | 24109 ft | 401 kts | 296° |
| 2026-05-07 15:09 | 17.54656 | -62.32763 | 23636 ft | 398 kts | 296° |
| 2026-05-07 15:10 | 17.55839 | -62.35349 | 23083 ft | 395 kts | 296° |
| 2026-05-07 15:10 | 17.57024 | -62.37943 | 22520 ft | 392 kts | 296° |
| 2026-05-07 15:10 | 17.58201 | -62.40519 | 22171 ft | 388 kts | 296° |
| 2026-05-07 15:10 | 17.59358 | -62.43052 | 22093 ft | 389 kts | 296° |
| 2026-05-07 15:11 | 17.60510 | -62.45575 | 21758 ft | 384 kts | 296° |
| 2026-05-07 15:11 | 17.61664 | -62.48104 | 21166 ft | 383 kts | 296° |
| 2026-05-07 15:11 | 17.62820 | -62.50639 | 20616 ft | 382 kts | 296° |
| 2026-05-07 15:11 | 17.63950 | -62.53117 | 20089 ft | 379 kts | 296° |
| 2026-05-07 15:12 | 17.65089 | -62.55615 | 19603 ft | 376 kts | 296° |
| 2026-05-07 15:12 | 17.66119 | -62.58111 | 19110 ft | 374 kts | 291° |
| 2026-05-07 15:12 | 17.66895 | -62.60725 | 18637 ft | 373 kts | 286° |
| 2026-05-07 15:12 | 17.67517 | -62.63332 | 18109 ft | 371 kts | 285° |
| 2026-05-07 15:13 | 17.68131 | -62.65972 | 17539 ft | 369 kts | 285° |
| 2026-05-07 15:13 | 17.68735 | -62.68557 | 16995 ft | 367 kts | 285° |
| 2026-05-07 15:13 | 17.69346 | -62.71156 | 16464 ft | 364 kts | 285° |
| 2026-05-07 15:13 | 17.69953 | -62.73730 | 15933 ft | 362 kts | 285° |
| 2026-05-07 15:14 | 17.70551 | -62.76254 | 15410 ft | 360 kts | 285° |
| 2026-05-07 15:14 | 17.71160 | -62.78811 | 14977 ft | 355 kts | 285° |
| 2026-05-07 15:14 | 17.71749 | -62.81294 | 14758 ft | 345 kts | 285° |
| 2026-05-07 15:14 | 17.72313 | -62.83667 | 14560 ft | 334 kts | 285° |
| 2026-05-07 15:15 | 17.72868 | -62.86005 | 14373 ft | 323 kts | 285° |
| 2026-05-07 15:15 | 17.73397 | -62.88239 | 14167 ft | 315 kts | 285° |
| 2026-05-07 15:15 | 17.73911 | -62.90405 | 13841 ft | 311 kts | 285° |
| 2026-05-07 15:15 | 17.74432 | -62.92609 | 13430 ft | 308 kts | 285° |
| 2026-05-07 15:16 | 17.74945 | -62.94774 | 12885 ft | 310 kts | 285° |
| 2026-05-07 15:16 | 17.75472 | -62.96987 | 12278 ft | 315 kts | 285° |
| 2026-05-07 15:16 | 17.76010 | -62.99237 | 11673 ft | 318 kts | 285° |
| 2026-05-07 15:16 | 17.76559 | -63.01511 | 11084 ft | 321 kts | 285° |
| 2026-05-07 15:17 | 17.77113 | -63.03779 | 10498 ft | 324 kts | 285° |
| 2026-05-07 15:17 | 17.77673 | -63.06052 | 9924 ft | 325 kts | 285° |
| 2026-05-07 15:17 | 17.78247 | -63.08367 | 9288 ft | 326 kts | 285° |
| 2026-05-07 15:17 | 17.78813 | -63.10656 | 8672 ft | 326 kts | 285° |
| 2026-05-07 15:18 | 17.79387 | -63.12986 | 8055 ft | 327 kts | 285° |
| 2026-05-07 15:18 | 17.79950 | -63.15265 | 7472 ft | 327 kts | 285° |
| 2026-05-07 15:18 | 17.80521 | -63.17581 | 6877 ft | 327 kts | 285° |
| 2026-05-07 15:18 | 17.81260 | -63.19835 | 6333 ft | 323 kts | 300° |
| 2026-05-07 15:19 | 17.82593 | -63.21546 | 5943 ft | 295 kts | 322° |
| 2026-05-07 15:19 | 17.84217 | -63.22728 | 5614 ft | 271 kts | 329° |
| 2026-05-07 15:19 | 17.85763 | -63.23715 | 5357 ft | 250 kts | 330° |
| 2026-05-07 15:19 | 17.87203 | -63.24621 | 5084 ft | 234 kts | 330° |
| 2026-05-07 15:20 | 17.88549 | -63.25464 | 4780 ft | 221 kts | 330° |
| 2026-05-07 15:20 | 17.89873 | -63.26298 | 4491 ft | 221 kts | 330° |
| 2026-05-07 15:20 | 17.91172 | -63.27113 | 4223 ft | 218 kts | 334° |
| 2026-05-07 15:20 | 17.92573 | -63.27707 | 4004 ft | 215 kts | 344° |
| 2026-05-07 15:21 | 17.93999 | -63.28188 | 3791 ft | 215 kts | 345° |
| 2026-05-07 15:21 | 17.95419 | -63.28646 | 3573 ft | 214 kts | 347° |
| 2026-05-07 15:21 | 17.96872 | -63.28918 | 3356 ft | 210 kts | 356° |
| 2026-05-07 15:21 | 17.98311 | -63.29095 | 3174 ft | 204 kts | 356° |
| 2026-05-07 15:22 | 17.99705 | -63.29176 | 2947 ft | 197 kts | 7° |
| 2026-05-07 15:22 | 18.00891 | -63.28632 | 2719 ft | 186 kts | 49° |
| 2026-05-07 15:22 | 18.01576 | -63.27528 | 2607 ft | 174 kts | 66° |
| 2026-05-07 15:22 | 18.01990 | -63.26411 | 2589 ft | 161 kts | 78° |
| 2026-05-07 15:23 | 18.02144 | -63.25247 | 2534 ft | 159 kts | 83° |
| 2026-05-07 15:23 | 18.02321 | -63.24099 | 2318 ft | 158 kts | 82° |
| 2026-05-07 15:23 | 18.02473 | -63.22970 | 2097 ft | 158 kts | 83° |
| 2026-05-07 15:23 | 18.02625 | -63.21818 | 1889 ft | 159 kts | 83° |
| 2026-05-07 15:24 | 18.02780 | -63.20664 | 1679 ft | 158 kts | 82° |
| 2026-05-07 15:24 | 18.02926 | -63.19574 | 1461 ft | 147 kts | 83° |
| 2026-05-07 15:24 | 18.03061 | -63.18560 | 1277 ft | 135 kts | 83° |
| 2026-05-07 15:24 | 18.03187 | -63.17611 | 1093 ft | 127 kts | 82° |
| 2026-05-07 15:25 | 18.03310 | -63.16693 | 940 ft | 128 kts | 82° |
| 2026-05-07 15:25 | 18.03434 | -63.15758 | 779 ft | 130 kts | 82° |
| 2026-05-07 15:25 | 18.03575 | -63.14843 | 556 ft | 126 kts | 80° |
| 2026-05-07 15:25 | 18.03685 | -63.13906 | 432 ft | 133 kts | 85° |
| 2026-05-07 15:26 | 18.03809 | -63.12954 | 307 ft | 132 kts | 82° |
| 2026-05-07 15:26 | 18.03932 | -63.12042 | 104 ft | 132 kts | 84° |
| 2026-05-07 15:26 | 18.04063 | -63.11137 | 28 ft | 107 kts | 82° |
| 2026-05-07 15:26 | 18.04133 | -63.10636 | 28 ft | 49 kts | 82° |
| 2026-05-07 15:27 | 18.04178 | -63.10302 | 26 ft | 44 kts | 82° |
| 2026-05-07 15:27 | 18.04214 | -63.10045 | 31 ft | 30 kts | 81° |
| 2026-05-07 15:27 | 18.04269 | -63.09909 | 26 ft | 19 kts | 53° |
| 2026-05-07 15:27 | 18.04272 | -63.09845 | 27 ft | 5 kts | 146° |
| 2026-05-07 15:28 | 18.04245 | -63.09851 | 27 ft | 3 kts | 225° |
| 2026-05-07 15:28 | 18.04237 | -63.09886 | 27 ft | 10 kts | 258° |
| 2026-05-07 15:28 | 18.04219 | -63.10032 | 29 ft | 29 kts | 261° |
| 2026-05-07 15:28 | 18.04186 | -63.10265 | 30 ft | 34 kts | 261° |
| 2026-05-07 15:29 | 18.04150 | -63.10517 | 27 ft | 35 kts | 261° |
| 2026-05-07 15:29 | 18.04113 | -63.10776 | 26 ft | 37 kts | 262° |
| 2026-05-07 15:29 | 18.04091 | -63.10937 | 27 ft | 13 kts | 262° |
| 2026-05-07 15:29 | 18.04115 | -63.10991 | 28 ft | 7 kts | 333° |
| 2026-05-07 15:30 | 18.04166 | -63.11008 | 28 ft | 4 kts | 319° |
| 2026-05-07 15:30 | 18.04169 | -63.11035 | 28 ft | 5 kts | 268° |
| 2026-05-07 15:30 | 18.04165 | -63.11092 | 28 ft | 12 kts | 259° |
| 2026-05-07 15:30 | 18.04145 | -63.11206 | 27 ft | 18 kts | 261° |
| 2026-05-07 15:31 | 18.04147 | -63.11294 | 27 ft | 9 kts | 309° |
| 2026-05-07 15:31 | 18.04212 | -63.11309 | 27 ft | 10 kts | 345° |
| 2026-05-07 15:31 | 18.04237 | -63.11372 | 27 ft | 11 kts | 262° |
| 2026-05-07 15:31 | 18.04244 | -63.11414 | 27 ft | 4 kts | 316° |
| 2026-05-07 15:32 | 18.04279 | -63.11423 | 27 ft | 4 kts | 348° |
| 2026-05-07 15:32 | 18.04306 | -63.11428 | 27 ft | 4 kts | 351° |
| 2026-05-07 15:32 | 18.04313 | -63.11429 | 27 ft | 0 kts | 351° |